<?xml version="1.0" encoding="UTF-8" standalone="no" ?>
<gpx xmlns="http://www.topografix.com/GPX/1/1" xmlns:xsi="http://www.w3.org/2001/XMLSchema-instance" xsi:schemaLocation="http://www.topografix.com/GPX/1/1 http://www.topografix.com/GPX/1/1/gpx.xsd" version="1.1" creator="VisuGPX - https://www.visugpx.com">
  <metadata>
    <name>Entre Biron et Monpazier</name>
    <desc><![CDATA[Une sortie facile, sur des chemins ombragés]]></desc>
  </metadata>
  <trk>
    <name><![CDATA[22-SEPT-13 12:05:42]]></name>
    <trkseg>
      <trkpt lat="44.63086" lon="0.8715">
        <ele>210.19</ele>
        <time>2013-09-22T06:58:38Z</time>
      </trkpt>
      <trkpt lat="44.63085" lon="0.87149">
        <ele>209.7</ele>
        <time>2013-09-22T06:58:56Z</time>
      </trkpt>
      <trkpt lat="44.63088" lon="0.87151">
        <ele>209.22</ele>
        <time>2013-09-22T06:59:16Z</time>
      </trkpt>
      <trkpt lat="44.63086" lon="0.8715">
        <ele>211.15</ele>
        <time>2013-09-22T06:59:35Z</time>
      </trkpt>
      <trkpt lat="44.63086" lon="0.87152">
        <ele>210.67</ele>
        <time>2013-09-22T06:59:51Z</time>
      </trkpt>
      <trkpt lat="44.63087" lon="0.87152">
        <ele>209.7</ele>
        <time>2013-09-22T07:00:08Z</time>
      </trkpt>
      <trkpt lat="44.63087" lon="0.87151">
        <ele>209.22</ele>
        <time>2013-09-22T07:00:24Z</time>
      </trkpt>
      <trkpt lat="44.63089" lon="0.87152">
        <ele>210.19</ele>
        <time>2013-09-22T07:00:40Z</time>
      </trkpt>
      <trkpt lat="44.6309" lon="0.87152">
        <ele>208.26</ele>
        <time>2013-09-22T07:00:54Z</time>
      </trkpt>
      <trkpt lat="44.63091" lon="0.87152">
        <ele>207.78</ele>
        <time>2013-09-22T07:01:17Z</time>
      </trkpt>
      <trkpt lat="44.63089" lon="0.87151">
        <ele>208.26</ele>
        <time>2013-09-22T07:01:34Z</time>
      </trkpt>
      <trkpt lat="44.6309" lon="0.87152">
        <ele>209.22</ele>
        <time>2013-09-22T07:01:49Z</time>
      </trkpt>
      <trkpt lat="44.63089" lon="0.87151">
        <ele>209.22</ele>
        <time>2013-09-22T07:02:06Z</time>
      </trkpt>
      <trkpt lat="44.63088" lon="0.87151">
        <ele>209.7</ele>
        <time>2013-09-22T07:02:23Z</time>
      </trkpt>
      <trkpt lat="44.63086" lon="0.8715">
        <ele>213.07</ele>
        <time>2013-09-22T07:02:45Z</time>
      </trkpt>
      <trkpt lat="44.63088" lon="0.87151">
        <ele>212.11</ele>
        <time>2013-09-22T07:02:57Z</time>
      </trkpt>
      <trkpt lat="44.6311" lon="0.87133">
        <ele>212.59</ele>
        <time>2013-09-22T07:03:12Z</time>
      </trkpt>
      <trkpt lat="44.63149" lon="0.87114">
        <ele>214.51</ele>
        <time>2013-09-22T07:03:28Z</time>
      </trkpt>
      <trkpt lat="44.63204" lon="0.87114">
        <ele>215.95</ele>
        <time>2013-09-22T07:03:46Z</time>
      </trkpt>
      <trkpt lat="44.63242" lon="0.87139">
        <ele>215.95</ele>
        <time>2013-09-22T07:04:00Z</time>
      </trkpt>
      <trkpt lat="44.63279" lon="0.87196">
        <ele>216.91</ele>
        <time>2013-09-22T07:04:17Z</time>
      </trkpt>
      <trkpt lat="44.63296" lon="0.87282">
        <ele>218.36</ele>
        <time>2013-09-22T07:04:36Z</time>
      </trkpt>
      <trkpt lat="44.63303" lon="0.87308">
        <ele>218.36</ele>
        <time>2013-09-22T07:04:41Z</time>
      </trkpt>
      <trkpt lat="44.63313" lon="0.87331">
        <ele>218.36</ele>
        <time>2013-09-22T07:04:45Z</time>
      </trkpt>
      <trkpt lat="44.63365" lon="0.87421">
        <ele>212.11</ele>
        <time>2013-09-22T07:04:56Z</time>
      </trkpt>
      <trkpt lat="44.63445" lon="0.87608">
        <ele>205.86</ele>
        <time>2013-09-22T07:05:12Z</time>
      </trkpt>
      <trkpt lat="44.63453" lon="0.87631">
        <ele>205.86</ele>
        <time>2013-09-22T07:05:14Z</time>
      </trkpt>
      <trkpt lat="44.63493" lon="0.87791">
        <ele>200.57</ele>
        <time>2013-09-22T07:05:29Z</time>
      </trkpt>
      <trkpt lat="44.63495" lon="0.87807">
        <ele>200.09</ele>
        <time>2013-09-22T07:05:31Z</time>
      </trkpt>
      <trkpt lat="44.63505" lon="0.87832">
        <ele>201.05</ele>
        <time>2013-09-22T07:05:35Z</time>
      </trkpt>
      <trkpt lat="44.63512" lon="0.8784">
        <ele>202.01</ele>
        <time>2013-09-22T07:05:37Z</time>
      </trkpt>
      <trkpt lat="44.6357" lon="0.87906">
        <ele>206.34</ele>
        <time>2013-09-22T07:05:53Z</time>
      </trkpt>
      <trkpt lat="44.6361" lon="0.87945">
        <ele>212.59</ele>
        <time>2013-09-22T07:06:06Z</time>
      </trkpt>
      <trkpt lat="44.63646" lon="0.87967">
        <ele>212.59</ele>
        <time>2013-09-22T07:06:17Z</time>
      </trkpt>
      <trkpt lat="44.63712" lon="0.88006">
        <ele>211.15</ele>
        <time>2013-09-22T07:06:28Z</time>
      </trkpt>
      <trkpt lat="44.63805" lon="0.88056">
        <ele>209.7</ele>
        <time>2013-09-22T07:06:41Z</time>
      </trkpt>
      <trkpt lat="44.63899" lon="0.88091">
        <ele>204.42</ele>
        <time>2013-09-22T07:06:53Z</time>
      </trkpt>
      <trkpt lat="44.63996" lon="0.88124">
        <ele>197.21</ele>
        <time>2013-09-22T07:07:05Z</time>
      </trkpt>
      <trkpt lat="44.64045" lon="0.88144">
        <ele>193.84</ele>
        <time>2013-09-22T07:07:13Z</time>
      </trkpt>
      <trkpt lat="44.64059" lon="0.88149">
        <ele>193.36</ele>
        <time>2013-09-22T07:07:17Z</time>
      </trkpt>
      <trkpt lat="44.64074" lon="0.88125">
        <ele>190</ele>
        <time>2013-09-22T07:07:26Z</time>
      </trkpt>
      <trkpt lat="44.6408" lon="0.88102">
        <ele>188.08</ele>
        <time>2013-09-22T07:07:33Z</time>
      </trkpt>
      <trkpt lat="44.64115" lon="0.88081">
        <ele>186.63</ele>
        <time>2013-09-22T07:07:45Z</time>
      </trkpt>
      <trkpt lat="44.6413" lon="0.88065">
        <ele>186.63</ele>
        <time>2013-09-22T07:07:50Z</time>
      </trkpt>
      <trkpt lat="44.64143" lon="0.88055">
        <ele>186.15</ele>
        <time>2013-09-22T07:07:54Z</time>
      </trkpt>
      <trkpt lat="44.64157" lon="0.88061">
        <ele>185.67</ele>
        <time>2013-09-22T07:07:59Z</time>
      </trkpt>
      <trkpt lat="44.64172" lon="0.88044">
        <ele>187.11</ele>
        <time>2013-09-22T07:08:04Z</time>
      </trkpt>
      <trkpt lat="44.64185" lon="0.88021">
        <ele>187.59</ele>
        <time>2013-09-22T07:08:08Z</time>
      </trkpt>
      <trkpt lat="44.64231" lon="0.87989">
        <ele>189.52</ele>
        <time>2013-09-22T07:08:18Z</time>
      </trkpt>
      <trkpt lat="44.64256" lon="0.87975">
        <ele>190.48</ele>
        <time>2013-09-22T07:08:23Z</time>
      </trkpt>
      <trkpt lat="44.64276" lon="0.87964">
        <ele>190.96</ele>
        <time>2013-09-22T07:08:27Z</time>
      </trkpt>
      <trkpt lat="44.64286" lon="0.8796">
        <ele>191.92</ele>
        <time>2013-09-22T07:08:29Z</time>
      </trkpt>
      <trkpt lat="44.64318" lon="0.8795">
        <ele>192.88</ele>
        <time>2013-09-22T07:08:36Z</time>
      </trkpt>
      <trkpt lat="44.64344" lon="0.87952">
        <ele>197.21</ele>
        <time>2013-09-22T07:08:47Z</time>
      </trkpt>
      <trkpt lat="44.64357" lon="0.87948">
        <ele>198.17</ele>
        <time>2013-09-22T07:09:00Z</time>
      </trkpt>
      <trkpt lat="44.64372" lon="0.87947">
        <ele>199.13</ele>
        <time>2013-09-22T07:09:07Z</time>
      </trkpt>
      <trkpt lat="44.64389" lon="0.87938">
        <ele>199.13</ele>
        <time>2013-09-22T07:09:12Z</time>
      </trkpt>
      <trkpt lat="44.64407" lon="0.87936">
        <ele>198.65</ele>
        <time>2013-09-22T07:09:16Z</time>
      </trkpt>
      <trkpt lat="44.64425" lon="0.87936">
        <ele>197.21</ele>
        <time>2013-09-22T07:09:20Z</time>
      </trkpt>
      <trkpt lat="44.64438" lon="0.87929">
        <ele>196.73</ele>
        <time>2013-09-22T07:09:25Z</time>
      </trkpt>
      <trkpt lat="44.64441" lon="0.87906">
        <ele>194.32</ele>
        <time>2013-09-22T07:09:30Z</time>
      </trkpt>
      <trkpt lat="44.64477" lon="0.87858">
        <ele>192.4</ele>
        <time>2013-09-22T07:09:40Z</time>
      </trkpt>
      <trkpt lat="44.6449" lon="0.87805">
        <ele>193.36</ele>
        <time>2013-09-22T07:09:52Z</time>
      </trkpt>
      <trkpt lat="44.64493" lon="0.87781">
        <ele>192.88</ele>
        <time>2013-09-22T07:09:58Z</time>
      </trkpt>
      <trkpt lat="44.64515" lon="0.87769">
        <ele>198.17</ele>
        <time>2013-09-22T07:10:09Z</time>
      </trkpt>
      <trkpt lat="44.64532" lon="0.87762">
        <ele>202.01</ele>
        <time>2013-09-22T07:10:22Z</time>
      </trkpt>
      <trkpt lat="44.64558" lon="0.87749">
        <ele>206.82</ele>
        <time>2013-09-22T07:10:38Z</time>
      </trkpt>
      <trkpt lat="44.64581" lon="0.87731">
        <ele>209.22</ele>
        <time>2013-09-22T07:10:50Z</time>
      </trkpt>
      <trkpt lat="44.64587" lon="0.87715">
        <ele>208.26</ele>
        <time>2013-09-22T07:10:55Z</time>
      </trkpt>
      <trkpt lat="44.64598" lon="0.87708">
        <ele>207.78</ele>
        <time>2013-09-22T07:11:00Z</time>
      </trkpt>
      <trkpt lat="44.64628" lon="0.87678">
        <ele>205.86</ele>
        <time>2013-09-22T07:11:15Z</time>
      </trkpt>
      <trkpt lat="44.64666" lon="0.87661">
        <ele>203.94</ele>
        <time>2013-09-22T07:11:30Z</time>
      </trkpt>
      <trkpt lat="44.64682" lon="0.87649">
        <ele>204.9</ele>
        <time>2013-09-22T07:11:37Z</time>
      </trkpt>
      <trkpt lat="44.64699" lon="0.87662">
        <ele>204.9</ele>
        <time>2013-09-22T07:11:45Z</time>
      </trkpt>
      <trkpt lat="44.64724" lon="0.87653">
        <ele>205.38</ele>
        <time>2013-09-22T07:11:53Z</time>
      </trkpt>
      <trkpt lat="44.6476" lon="0.87633">
        <ele>203.46</ele>
        <time>2013-09-22T07:12:03Z</time>
      </trkpt>
      <trkpt lat="44.64785" lon="0.87629">
        <ele>203.46</ele>
        <time>2013-09-22T07:12:08Z</time>
      </trkpt>
      <trkpt lat="44.64809" lon="0.87622">
        <ele>203.94</ele>
        <time>2013-09-22T07:12:12Z</time>
      </trkpt>
      <trkpt lat="44.64851" lon="0.87654">
        <ele>201.53</ele>
        <time>2013-09-22T07:12:19Z</time>
      </trkpt>
      <trkpt lat="44.64874" lon="0.87655">
        <ele>200.57</ele>
        <time>2013-09-22T07:12:23Z</time>
      </trkpt>
      <trkpt lat="44.64889" lon="0.87637">
        <ele>200.09</ele>
        <time>2013-09-22T07:12:26Z</time>
      </trkpt>
      <trkpt lat="44.649" lon="0.87614">
        <ele>198.65</ele>
        <time>2013-09-22T07:12:29Z</time>
      </trkpt>
      <trkpt lat="44.64913" lon="0.87577">
        <ele>196.25</ele>
        <time>2013-09-22T07:12:33Z</time>
      </trkpt>
      <trkpt lat="44.6492" lon="0.87535">
        <ele>192.88</ele>
        <time>2013-09-22T07:12:38Z</time>
      </trkpt>
      <trkpt lat="44.64919" lon="0.87519">
        <ele>186.63</ele>
        <time>2013-09-22T07:12:46Z</time>
      </trkpt>
      <trkpt lat="44.64919" lon="0.8752">
        <ele>186.15</ele>
        <time>2013-09-22T07:12:47Z</time>
      </trkpt>
      <trkpt lat="44.6493" lon="0.87539">
        <ele>174.14</ele>
        <time>2013-09-22T07:12:59Z</time>
      </trkpt>
      <trkpt lat="44.64933" lon="0.87539">
        <ele>161.64</ele>
        <time>2013-09-22T07:13:22Z</time>
      </trkpt>
      <trkpt lat="44.64933" lon="0.87542">
        <ele>160.2</ele>
        <time>2013-09-22T07:13:45Z</time>
      </trkpt>
      <trkpt lat="44.64936" lon="0.87545">
        <ele>160.68</ele>
        <time>2013-09-22T07:14:17Z</time>
      </trkpt>
      <trkpt lat="44.64936" lon="0.8754">
        <ele>162.12</ele>
        <time>2013-09-22T07:14:48Z</time>
      </trkpt>
      <trkpt lat="44.64932" lon="0.87538">
        <ele>163.08</ele>
        <time>2013-09-22T07:15:14Z</time>
      </trkpt>
      <trkpt lat="44.64931" lon="0.87537">
        <ele>162.6</ele>
        <time>2013-09-22T07:15:15Z</time>
      </trkpt>
      <trkpt lat="44.64926" lon="0.87513">
        <ele>164.52</ele>
        <time>2013-09-22T07:15:26Z</time>
      </trkpt>
      <trkpt lat="44.64919" lon="0.87471">
        <ele>167.89</ele>
        <time>2013-09-22T07:15:36Z</time>
      </trkpt>
      <trkpt lat="44.64923" lon="0.8741">
        <ele>165.96</ele>
        <time>2013-09-22T07:15:45Z</time>
      </trkpt>
      <trkpt lat="44.64934" lon="0.87399">
        <ele>165.48</ele>
        <time>2013-09-22T07:15:48Z</time>
      </trkpt>
      <trkpt lat="44.64951" lon="0.87388">
        <ele>165.48</ele>
        <time>2013-09-22T07:15:59Z</time>
      </trkpt>
      <trkpt lat="44.64958" lon="0.87389">
        <ele>160.2</ele>
        <time>2013-09-22T07:16:12Z</time>
      </trkpt>
      <trkpt lat="44.64976" lon="0.87402">
        <ele>156.83</ele>
        <time>2013-09-22T07:16:23Z</time>
      </trkpt>
      <trkpt lat="44.64982" lon="0.87387">
        <ele>159.24</ele>
        <time>2013-09-22T07:16:30Z</time>
      </trkpt>
      <trkpt lat="44.65024" lon="0.87325">
        <ele>164.52</ele>
        <time>2013-09-22T07:16:46Z</time>
      </trkpt>
      <trkpt lat="44.65028" lon="0.87314">
        <ele>165.48</ele>
        <time>2013-09-22T07:16:48Z</time>
      </trkpt>
      <trkpt lat="44.65036" lon="0.87287">
        <ele>165.48</ele>
        <time>2013-09-22T07:16:52Z</time>
      </trkpt>
      <trkpt lat="44.6504" lon="0.87266">
        <ele>165.48</ele>
        <time>2013-09-22T07:16:55Z</time>
      </trkpt>
      <trkpt lat="44.6506" lon="0.87203">
        <ele>164.52</ele>
        <time>2013-09-22T07:17:04Z</time>
      </trkpt>
      <trkpt lat="44.65079" lon="0.87165">
        <ele>163.56</ele>
        <time>2013-09-22T07:17:10Z</time>
      </trkpt>
      <trkpt lat="44.65094" lon="0.87144">
        <ele>164.04</ele>
        <time>2013-09-22T07:17:14Z</time>
      </trkpt>
      <trkpt lat="44.65155" lon="0.87085">
        <ele>168.85</ele>
        <time>2013-09-22T07:17:28Z</time>
      </trkpt>
      <trkpt lat="44.65164" lon="0.87076">
        <ele>168.85</ele>
        <time>2013-09-22T07:17:30Z</time>
      </trkpt>
      <trkpt lat="44.65217" lon="0.87034">
        <ele>171.25</ele>
        <time>2013-09-22T07:17:41Z</time>
      </trkpt>
      <trkpt lat="44.65254" lon="0.87">
        <ele>174.62</ele>
        <time>2013-09-22T07:17:48Z</time>
      </trkpt>
      <trkpt lat="44.6528" lon="0.86984">
        <ele>177.98</ele>
        <time>2013-09-22T07:17:53Z</time>
      </trkpt>
      <trkpt lat="44.65303" lon="0.86957">
        <ele>179.9</ele>
        <time>2013-09-22T07:17:59Z</time>
      </trkpt>
      <trkpt lat="44.65327" lon="0.86922">
        <ele>181.83</ele>
        <time>2013-09-22T07:18:05Z</time>
      </trkpt>
      <trkpt lat="44.65337" lon="0.86884">
        <ele>181.35</ele>
        <time>2013-09-22T07:18:10Z</time>
      </trkpt>
      <trkpt lat="44.65343" lon="0.86861">
        <ele>180.87</ele>
        <time>2013-09-22T07:18:13Z</time>
      </trkpt>
      <trkpt lat="44.65347" lon="0.86825">
        <ele>177.5</ele>
        <time>2013-09-22T07:18:17Z</time>
      </trkpt>
      <trkpt lat="44.65357" lon="0.86754">
        <ele>171.25</ele>
        <time>2013-09-22T07:18:24Z</time>
      </trkpt>
      <trkpt lat="44.6538" lon="0.86698">
        <ele>153.95</ele>
        <time>2013-09-22T07:18:32Z</time>
      </trkpt>
      <trkpt lat="44.65388" lon="0.86684">
        <ele>145.3</ele>
        <time>2013-09-22T07:18:42Z</time>
      </trkpt>
      <trkpt lat="44.65387" lon="0.86683">
        <ele>138.09</ele>
        <time>2013-09-22T07:18:55Z</time>
      </trkpt>
      <trkpt lat="44.6539" lon="0.86686">
        <ele>137.61</ele>
        <time>2013-09-22T07:19:03Z</time>
      </trkpt>
      <trkpt lat="44.65395" lon="0.86686">
        <ele>139.53</ele>
        <time>2013-09-22T07:19:17Z</time>
      </trkpt>
      <trkpt lat="44.654" lon="0.86685">
        <ele>141.93</ele>
        <time>2013-09-22T07:19:26Z</time>
      </trkpt>
      <trkpt lat="44.65403" lon="0.86683">
        <ele>145.78</ele>
        <time>2013-09-22T07:19:46Z</time>
      </trkpt>
      <trkpt lat="44.65408" lon="0.86683">
        <ele>148.18</ele>
        <time>2013-09-22T07:19:51Z</time>
      </trkpt>
      <trkpt lat="44.65423" lon="0.86679">
        <ele>153.47</ele>
        <time>2013-09-22T07:19:59Z</time>
      </trkpt>
      <trkpt lat="44.65439" lon="0.86671">
        <ele>164.52</ele>
        <time>2013-09-22T07:20:11Z</time>
      </trkpt>
      <trkpt lat="44.65446" lon="0.86665">
        <ele>170.29</ele>
        <time>2013-09-22T07:20:16Z</time>
      </trkpt>
      <trkpt lat="44.65468" lon="0.86645">
        <ele>182.79</ele>
        <time>2013-09-22T07:20:32Z</time>
      </trkpt>
      <trkpt lat="44.65481" lon="0.86633">
        <ele>185.19</ele>
        <time>2013-09-22T07:20:41Z</time>
      </trkpt>
      <trkpt lat="44.65487" lon="0.86606">
        <ele>181.83</ele>
        <time>2013-09-22T07:20:49Z</time>
      </trkpt>
      <trkpt lat="44.65485" lon="0.86524">
        <ele>180.87</ele>
        <time>2013-09-22T07:20:58Z</time>
      </trkpt>
      <trkpt lat="44.65479" lon="0.86455">
        <ele>178.94</ele>
        <time>2013-09-22T07:21:06Z</time>
      </trkpt>
      <trkpt lat="44.65476" lon="0.86403">
        <ele>176.54</ele>
        <time>2013-09-22T07:21:13Z</time>
      </trkpt>
      <trkpt lat="44.65486" lon="0.86353">
        <ele>172.69</ele>
        <time>2013-09-22T07:21:20Z</time>
      </trkpt>
      <trkpt lat="44.65499" lon="0.8631">
        <ele>167.89</ele>
        <time>2013-09-22T07:21:26Z</time>
      </trkpt>
      <trkpt lat="44.65506" lon="0.86284">
        <ele>165</ele>
        <time>2013-09-22T07:21:29Z</time>
      </trkpt>
      <trkpt lat="44.65521" lon="0.86263">
        <ele>158.75</ele>
        <time>2013-09-22T07:21:35Z</time>
      </trkpt>
      <trkpt lat="44.65529" lon="0.86263">
        <ele>153.95</ele>
        <time>2013-09-22T07:21:40Z</time>
      </trkpt>
      <trkpt lat="44.65533" lon="0.86263">
        <ele>152.03</ele>
        <time>2013-09-22T07:21:43Z</time>
      </trkpt>
      <trkpt lat="44.65548" lon="0.86233">
        <ele>144.82</ele>
        <time>2013-09-22T07:21:50Z</time>
      </trkpt>
      <trkpt lat="44.65567" lon="0.86187">
        <ele>139.05</ele>
        <time>2013-09-22T07:21:56Z</time>
      </trkpt>
      <trkpt lat="44.65593" lon="0.86164">
        <ele>130.4</ele>
        <time>2013-09-22T07:22:06Z</time>
      </trkpt>
      <trkpt lat="44.65598" lon="0.86159">
        <ele>128.95</ele>
        <time>2013-09-22T07:22:10Z</time>
      </trkpt>
      <trkpt lat="44.65597" lon="0.86144">
        <ele>127.99</ele>
        <time>2013-09-22T07:22:14Z</time>
      </trkpt>
      <trkpt lat="44.6556" lon="0.86063">
        <ele>126.55</ele>
        <time>2013-09-22T07:22:30Z</time>
      </trkpt>
      <trkpt lat="44.65508" lon="0.85957">
        <ele>130.4</ele>
        <time>2013-09-22T07:22:47Z</time>
      </trkpt>
      <trkpt lat="44.65504" lon="0.85951">
        <ele>130.88</ele>
        <time>2013-09-22T07:22:48Z</time>
      </trkpt>
      <trkpt lat="44.65511" lon="0.85922">
        <ele>131.84</ele>
        <time>2013-09-22T07:22:53Z</time>
      </trkpt>
      <trkpt lat="44.65525" lon="0.85903">
        <ele>133.76</ele>
        <time>2013-09-22T07:22:57Z</time>
      </trkpt>
      <trkpt lat="44.65574" lon="0.85839">
        <ele>137.13</ele>
        <time>2013-09-22T07:23:07Z</time>
      </trkpt>
      <trkpt lat="44.65585" lon="0.85823">
        <ele>137.13</ele>
        <time>2013-09-22T07:23:09Z</time>
      </trkpt>
      <trkpt lat="44.65609" lon="0.8579">
        <ele>136.64</ele>
        <time>2013-09-22T07:23:14Z</time>
      </trkpt>
      <trkpt lat="44.65634" lon="0.85759">
        <ele>136.16</ele>
        <time>2013-09-22T07:23:22Z</time>
      </trkpt>
      <trkpt lat="44.65638" lon="0.85772">
        <ele>135.2</ele>
        <time>2013-09-22T07:23:25Z</time>
      </trkpt>
      <trkpt lat="44.6565" lon="0.8581">
        <ele>132.8</ele>
        <time>2013-09-22T07:23:31Z</time>
      </trkpt>
      <trkpt lat="44.6567" lon="0.85882">
        <ele>132.8</ele>
        <time>2013-09-22T07:23:42Z</time>
      </trkpt>
      <trkpt lat="44.6568" lon="0.85915">
        <ele>133.28</ele>
        <time>2013-09-22T07:23:48Z</time>
      </trkpt>
      <trkpt lat="44.65691" lon="0.85918">
        <ele>134.72</ele>
        <time>2013-09-22T07:23:52Z</time>
      </trkpt>
      <trkpt lat="44.65728" lon="0.85896">
        <ele>140.49</ele>
        <time>2013-09-22T07:24:06Z</time>
      </trkpt>
      <trkpt lat="44.65743" lon="0.85863">
        <ele>150.1</ele>
        <time>2013-09-22T07:24:18Z</time>
      </trkpt>
      <trkpt lat="44.65766" lon="0.85834">
        <ele>157.31</ele>
        <time>2013-09-22T07:24:30Z</time>
      </trkpt>
      <trkpt lat="44.65768" lon="0.85833">
        <ele>157.79</ele>
        <time>2013-09-22T07:24:31Z</time>
      </trkpt>
      <trkpt lat="44.65781" lon="0.85831">
        <ele>161.64</ele>
        <time>2013-09-22T07:24:37Z</time>
      </trkpt>
      <trkpt lat="44.65807" lon="0.85809">
        <ele>164.04</ele>
        <time>2013-09-22T07:24:48Z</time>
      </trkpt>
      <trkpt lat="44.6584" lon="0.85803">
        <ele>162.6</ele>
        <time>2013-09-22T07:24:59Z</time>
      </trkpt>
      <trkpt lat="44.65855" lon="0.85796">
        <ele>165.48</ele>
        <time>2013-09-22T07:25:05Z</time>
      </trkpt>
      <trkpt lat="44.6589" lon="0.85789">
        <ele>168.85</ele>
        <time>2013-09-22T07:25:18Z</time>
      </trkpt>
      <trkpt lat="44.6592" lon="0.85781">
        <ele>166.93</ele>
        <time>2013-09-22T07:25:30Z</time>
      </trkpt>
      <trkpt lat="44.65926" lon="0.85778">
        <ele>166.93</ele>
        <time>2013-09-22T07:25:33Z</time>
      </trkpt>
      <trkpt lat="44.65956" lon="0.85774">
        <ele>163.56</ele>
        <time>2013-09-22T07:25:50Z</time>
      </trkpt>
      <trkpt lat="44.65965" lon="0.85767">
        <ele>164.04</ele>
        <time>2013-09-22T07:25:55Z</time>
      </trkpt>
      <trkpt lat="44.65971" lon="0.85741">
        <ele>164.52</ele>
        <time>2013-09-22T07:26:08Z</time>
      </trkpt>
      <trkpt lat="44.65983" lon="0.8571">
        <ele>162.6</ele>
        <time>2013-09-22T07:26:22Z</time>
      </trkpt>
      <trkpt lat="44.65983" lon="0.85705">
        <ele>162.6</ele>
        <time>2013-09-22T07:26:24Z</time>
      </trkpt>
      <trkpt lat="44.65979" lon="0.8566">
        <ele>159.72</ele>
        <time>2013-09-22T07:26:45Z</time>
      </trkpt>
      <trkpt lat="44.65972" lon="0.85617">
        <ele>162.12</ele>
        <time>2013-09-22T07:27:03Z</time>
      </trkpt>
      <trkpt lat="44.65971" lon="0.85613">
        <ele>162.6</ele>
        <time>2013-09-22T07:27:05Z</time>
      </trkpt>
      <trkpt lat="44.65973" lon="0.85609">
        <ele>163.08</ele>
        <time>2013-09-22T07:27:09Z</time>
      </trkpt>
      <trkpt lat="44.65979" lon="0.85609">
        <ele>164.52</ele>
        <time>2013-09-22T07:27:23Z</time>
      </trkpt>
      <trkpt lat="44.65979" lon="0.85607">
        <ele>165.48</ele>
        <time>2013-09-22T07:27:48Z</time>
      </trkpt>
      <trkpt lat="44.65979" lon="0.85609">
        <ele>165.96</ele>
        <time>2013-09-22T07:28:09Z</time>
      </trkpt>
      <trkpt lat="44.65984" lon="0.85606">
        <ele>165.96</ele>
        <time>2013-09-22T07:28:13Z</time>
      </trkpt>
      <trkpt lat="44.66013" lon="0.85595">
        <ele>171.25</ele>
        <time>2013-09-22T07:28:26Z</time>
      </trkpt>
      <trkpt lat="44.66045" lon="0.85581">
        <ele>175.1</ele>
        <time>2013-09-22T07:28:37Z</time>
      </trkpt>
      <trkpt lat="44.66076" lon="0.85562">
        <ele>179.42</ele>
        <time>2013-09-22T07:28:48Z</time>
      </trkpt>
      <trkpt lat="44.6609" lon="0.85556">
        <ele>180.87</ele>
        <time>2013-09-22T07:28:53Z</time>
      </trkpt>
      <trkpt lat="44.6613" lon="0.85567">
        <ele>181.83</ele>
        <time>2013-09-22T07:29:07Z</time>
      </trkpt>
      <trkpt lat="44.66162" lon="0.8558">
        <ele>183.27</ele>
        <time>2013-09-22T07:29:21Z</time>
      </trkpt>
      <trkpt lat="44.66188" lon="0.85595">
        <ele>184.23</ele>
        <time>2013-09-22T07:29:33Z</time>
      </trkpt>
      <trkpt lat="44.66218" lon="0.85611">
        <ele>183.27</ele>
        <time>2013-09-22T07:29:47Z</time>
      </trkpt>
      <trkpt lat="44.66257" lon="0.85607">
        <ele>184.71</ele>
        <time>2013-09-22T07:30:01Z</time>
      </trkpt>
      <trkpt lat="44.66299" lon="0.85608">
        <ele>184.23</ele>
        <time>2013-09-22T07:30:14Z</time>
      </trkpt>
      <trkpt lat="44.66332" lon="0.8559">
        <ele>184.23</ele>
        <time>2013-09-22T07:30:26Z</time>
      </trkpt>
      <trkpt lat="44.66347" lon="0.8556">
        <ele>186.63</ele>
        <time>2013-09-22T07:30:40Z</time>
      </trkpt>
      <trkpt lat="44.66362" lon="0.85543">
        <ele>190</ele>
        <time>2013-09-22T07:30:54Z</time>
      </trkpt>
      <trkpt lat="44.66398" lon="0.85548">
        <ele>194.8</ele>
        <time>2013-09-22T07:31:07Z</time>
      </trkpt>
      <trkpt lat="44.66435" lon="0.85546">
        <ele>198.65</ele>
        <time>2013-09-22T07:31:18Z</time>
      </trkpt>
      <trkpt lat="44.66479" lon="0.85535">
        <ele>201.53</ele>
        <time>2013-09-22T07:31:30Z</time>
      </trkpt>
      <trkpt lat="44.6651" lon="0.85504">
        <ele>203.46</ele>
        <time>2013-09-22T07:31:42Z</time>
      </trkpt>
      <trkpt lat="44.66542" lon="0.85492">
        <ele>202.01</ele>
        <time>2013-09-22T07:31:53Z</time>
      </trkpt>
      <trkpt lat="44.66568" lon="0.85474">
        <ele>200.09</ele>
        <time>2013-09-22T07:32:02Z</time>
      </trkpt>
      <trkpt lat="44.66597" lon="0.85456">
        <ele>202.98</ele>
        <time>2013-09-22T07:32:12Z</time>
      </trkpt>
      <trkpt lat="44.6661" lon="0.85425">
        <ele>204.42</ele>
        <time>2013-09-22T07:32:21Z</time>
      </trkpt>
      <trkpt lat="44.66636" lon="0.8541">
        <ele>205.86</ele>
        <time>2013-09-22T07:32:33Z</time>
      </trkpt>
      <trkpt lat="44.66643" lon="0.85404">
        <ele>206.34</ele>
        <time>2013-09-22T07:32:46Z</time>
      </trkpt>
      <trkpt lat="44.66643" lon="0.85404">
        <ele>204.9</ele>
        <time>2013-09-22T07:33:01Z</time>
      </trkpt>
      <trkpt lat="44.66643" lon="0.85403">
        <ele>203.94</ele>
        <time>2013-09-22T07:33:20Z</time>
      </trkpt>
      <trkpt lat="44.66651" lon="0.85406">
        <ele>203.94</ele>
        <time>2013-09-22T07:33:35Z</time>
      </trkpt>
      <trkpt lat="44.66668" lon="0.85415">
        <ele>202.98</ele>
        <time>2013-09-22T07:33:43Z</time>
      </trkpt>
      <trkpt lat="44.66702" lon="0.85432">
        <ele>204.9</ele>
        <time>2013-09-22T07:33:53Z</time>
      </trkpt>
      <trkpt lat="44.66734" lon="0.85445">
        <ele>209.22</ele>
        <time>2013-09-22T07:34:01Z</time>
      </trkpt>
      <trkpt lat="44.66763" lon="0.85451">
        <ele>210.67</ele>
        <time>2013-09-22T07:34:08Z</time>
      </trkpt>
      <trkpt lat="44.66782" lon="0.85461">
        <ele>210.19</ele>
        <time>2013-09-22T07:34:13Z</time>
      </trkpt>
      <trkpt lat="44.66798" lon="0.85468">
        <ele>209.7</ele>
        <time>2013-09-22T07:34:16Z</time>
      </trkpt>
      <trkpt lat="44.66809" lon="0.85484">
        <ele>209.7</ele>
        <time>2013-09-22T07:34:20Z</time>
      </trkpt>
      <trkpt lat="44.66805" lon="0.85499">
        <ele>208.74</ele>
        <time>2013-09-22T07:34:23Z</time>
      </trkpt>
      <trkpt lat="44.66798" lon="0.85554">
        <ele>205.86</ele>
        <time>2013-09-22T07:34:31Z</time>
      </trkpt>
      <trkpt lat="44.66792" lon="0.85575">
        <ele>203.46</ele>
        <time>2013-09-22T07:34:36Z</time>
      </trkpt>
      <trkpt lat="44.66778" lon="0.85581">
        <ele>201.05</ele>
        <time>2013-09-22T07:34:40Z</time>
      </trkpt>
      <trkpt lat="44.66779" lon="0.85604">
        <ele>198.65</ele>
        <time>2013-09-22T07:34:45Z</time>
      </trkpt>
      <trkpt lat="44.66785" lon="0.85614">
        <ele>197.69</ele>
        <time>2013-09-22T07:34:47Z</time>
      </trkpt>
      <trkpt lat="44.66793" lon="0.85637">
        <ele>196.25</ele>
        <time>2013-09-22T07:34:50Z</time>
      </trkpt>
      <trkpt lat="44.66801" lon="0.85671">
        <ele>194.32</ele>
        <time>2013-09-22T07:34:57Z</time>
      </trkpt>
      <trkpt lat="44.66821" lon="0.85671">
        <ele>197.21</ele>
        <time>2013-09-22T07:35:02Z</time>
      </trkpt>
      <trkpt lat="44.66838" lon="0.857">
        <ele>198.65</ele>
        <time>2013-09-22T07:35:08Z</time>
      </trkpt>
      <trkpt lat="44.66849" lon="0.85721">
        <ele>199.61</ele>
        <time>2013-09-22T07:35:12Z</time>
      </trkpt>
      <trkpt lat="44.66861" lon="0.85738">
        <ele>200.57</ele>
        <time>2013-09-22T07:35:16Z</time>
      </trkpt>
      <trkpt lat="44.66888" lon="0.85778">
        <ele>201.53</ele>
        <time>2013-09-22T07:35:26Z</time>
      </trkpt>
      <trkpt lat="44.66887" lon="0.85784">
        <ele>201.05</ele>
        <time>2013-09-22T07:35:27Z</time>
      </trkpt>
      <trkpt lat="44.66885" lon="0.85805">
        <ele>199.13</ele>
        <time>2013-09-22T07:35:31Z</time>
      </trkpt>
      <trkpt lat="44.6689" lon="0.8583">
        <ele>197.21</ele>
        <time>2013-09-22T07:35:35Z</time>
      </trkpt>
      <trkpt lat="44.66898" lon="0.85848">
        <ele>196.25</ele>
        <time>2013-09-22T07:35:38Z</time>
      </trkpt>
      <trkpt lat="44.66915" lon="0.85872">
        <ele>195.77</ele>
        <time>2013-09-22T07:35:43Z</time>
      </trkpt>
      <trkpt lat="44.66947" lon="0.85887">
        <ele>198.17</ele>
        <time>2013-09-22T07:35:53Z</time>
      </trkpt>
      <trkpt lat="44.66947" lon="0.85887">
        <ele>199.13</ele>
        <time>2013-09-22T07:36:10Z</time>
      </trkpt>
      <trkpt lat="44.66948" lon="0.8589">
        <ele>202.01</ele>
        <time>2013-09-22T07:36:32Z</time>
      </trkpt>
      <trkpt lat="44.66947" lon="0.8589">
        <ele>202.01</ele>
        <time>2013-09-22T07:36:38Z</time>
      </trkpt>
      <trkpt lat="44.66956" lon="0.859">
        <ele>202.49</ele>
        <time>2013-09-22T07:36:42Z</time>
      </trkpt>
      <trkpt lat="44.67019" lon="0.85949">
        <ele>204.42</ele>
        <time>2013-09-22T07:36:55Z</time>
      </trkpt>
      <trkpt lat="44.67091" lon="0.86017">
        <ele>203.94</ele>
        <time>2013-09-22T07:37:12Z</time>
      </trkpt>
      <trkpt lat="44.67113" lon="0.86043">
        <ele>203.46</ele>
        <time>2013-09-22T07:37:18Z</time>
      </trkpt>
      <trkpt lat="44.6716" lon="0.86122">
        <ele>204.9</ele>
        <time>2013-09-22T07:37:31Z</time>
      </trkpt>
      <trkpt lat="44.67205" lon="0.86217">
        <ele>206.34</ele>
        <time>2013-09-22T07:37:46Z</time>
      </trkpt>
      <trkpt lat="44.67235" lon="0.86288">
        <ele>206.34</ele>
        <time>2013-09-22T07:37:59Z</time>
      </trkpt>
      <trkpt lat="44.67249" lon="0.86327">
        <ele>203.46</ele>
        <time>2013-09-22T07:38:07Z</time>
      </trkpt>
      <trkpt lat="44.67269" lon="0.86384">
        <ele>202.98</ele>
        <time>2013-09-22T07:38:17Z</time>
      </trkpt>
      <trkpt lat="44.67275" lon="0.864">
        <ele>203.46</ele>
        <time>2013-09-22T07:38:20Z</time>
      </trkpt>
      <trkpt lat="44.67282" lon="0.86429">
        <ele>205.38</ele>
        <time>2013-09-22T07:38:25Z</time>
      </trkpt>
      <trkpt lat="44.67295" lon="0.86466">
        <ele>206.34</ele>
        <time>2013-09-22T07:38:32Z</time>
      </trkpt>
      <trkpt lat="44.67303" lon="0.8648">
        <ele>206.34</ele>
        <time>2013-09-22T07:38:35Z</time>
      </trkpt>
      <trkpt lat="44.67317" lon="0.86497">
        <ele>206.34</ele>
        <time>2013-09-22T07:38:39Z</time>
      </trkpt>
      <trkpt lat="44.67339" lon="0.8651">
        <ele>205.86</ele>
        <time>2013-09-22T07:38:44Z</time>
      </trkpt>
      <trkpt lat="44.67378" lon="0.86526">
        <ele>204.9</ele>
        <time>2013-09-22T07:38:52Z</time>
      </trkpt>
      <trkpt lat="44.67401" lon="0.86551">
        <ele>204.9</ele>
        <time>2013-09-22T07:38:58Z</time>
      </trkpt>
      <trkpt lat="44.67417" lon="0.86608">
        <ele>203.46</ele>
        <time>2013-09-22T07:39:07Z</time>
      </trkpt>
      <trkpt lat="44.67421" lon="0.86628">
        <ele>203.46</ele>
        <time>2013-09-22T07:39:10Z</time>
      </trkpt>
      <trkpt lat="44.67426" lon="0.86648">
        <ele>203.46</ele>
        <time>2013-09-22T07:39:13Z</time>
      </trkpt>
      <trkpt lat="44.6743" lon="0.86667">
        <ele>203.46</ele>
        <time>2013-09-22T07:39:16Z</time>
      </trkpt>
      <trkpt lat="44.67446" lon="0.86712">
        <ele>202.01</ele>
        <time>2013-09-22T07:39:23Z</time>
      </trkpt>
      <trkpt lat="44.67456" lon="0.86737">
        <ele>201.53</ele>
        <time>2013-09-22T07:39:27Z</time>
      </trkpt>
      <trkpt lat="44.67501" lon="0.86831">
        <ele>199.13</ele>
        <time>2013-09-22T07:39:39Z</time>
      </trkpt>
      <trkpt lat="44.67552" lon="0.86921">
        <ele>196.73</ele>
        <time>2013-09-22T07:39:51Z</time>
      </trkpt>
      <trkpt lat="44.67556" lon="0.86921">
        <ele>196.73</ele>
        <time>2013-09-22T07:40:10Z</time>
      </trkpt>
      <trkpt lat="44.67555" lon="0.86923">
        <ele>197.21</ele>
        <time>2013-09-22T07:40:36Z</time>
      </trkpt>
      <trkpt lat="44.67566" lon="0.86942">
        <ele>196.73</ele>
        <time>2013-09-22T07:40:46Z</time>
      </trkpt>
      <trkpt lat="44.67594" lon="0.86992">
        <ele>197.69</ele>
        <time>2013-09-22T07:40:58Z</time>
      </trkpt>
      <trkpt lat="44.67638" lon="0.8706">
        <ele>199.61</ele>
        <time>2013-09-22T07:41:13Z</time>
      </trkpt>
      <trkpt lat="44.67646" lon="0.87075">
        <ele>200.09</ele>
        <time>2013-09-22T07:41:16Z</time>
      </trkpt>
      <trkpt lat="44.67699" lon="0.87168">
        <ele>198.17</ele>
        <time>2013-09-22T07:41:34Z</time>
      </trkpt>
      <trkpt lat="44.6774" lon="0.87227">
        <ele>193.84</ele>
        <time>2013-09-22T07:41:46Z</time>
      </trkpt>
      <trkpt lat="44.67798" lon="0.87315">
        <ele>195.77</ele>
        <time>2013-09-22T07:42:02Z</time>
      </trkpt>
      <trkpt lat="44.67873" lon="0.87419">
        <ele>197.69</ele>
        <time>2013-09-22T07:42:20Z</time>
      </trkpt>
      <trkpt lat="44.67915" lon="0.87528">
        <ele>197.21</ele>
        <time>2013-09-22T07:42:35Z</time>
      </trkpt>
      <trkpt lat="44.67957" lon="0.8765">
        <ele>194.8</ele>
        <time>2013-09-22T07:42:50Z</time>
      </trkpt>
      <trkpt lat="44.67993" lon="0.87774">
        <ele>191.92</ele>
        <time>2013-09-22T07:43:02Z</time>
      </trkpt>
      <trkpt lat="44.68" lon="0.87799">
        <ele>191.44</ele>
        <time>2013-09-22T07:43:04Z</time>
      </trkpt>
      <trkpt lat="44.68009" lon="0.87848">
        <ele>190.48</ele>
        <time>2013-09-22T07:43:08Z</time>
      </trkpt>
      <trkpt lat="44.6801" lon="0.87906">
        <ele>190.48</ele>
        <time>2013-09-22T07:43:13Z</time>
      </trkpt>
      <trkpt lat="44.6803" lon="0.87948">
        <ele>193.36</ele>
        <time>2013-09-22T07:43:18Z</time>
      </trkpt>
      <trkpt lat="44.68042" lon="0.87956">
        <ele>194.32</ele>
        <time>2013-09-22T07:43:20Z</time>
      </trkpt>
      <trkpt lat="44.68062" lon="0.8797">
        <ele>195.77</ele>
        <time>2013-09-22T07:43:24Z</time>
      </trkpt>
      <trkpt lat="44.68077" lon="0.87982">
        <ele>196.25</ele>
        <time>2013-09-22T07:43:27Z</time>
      </trkpt>
      <trkpt lat="44.68095" lon="0.8801">
        <ele>195.77</ele>
        <time>2013-09-22T07:43:31Z</time>
      </trkpt>
      <trkpt lat="44.68105" lon="0.88057">
        <ele>194.32</ele>
        <time>2013-09-22T07:43:36Z</time>
      </trkpt>
      <trkpt lat="44.681" lon="0.88168">
        <ele>199.13</ele>
        <time>2013-09-22T07:43:50Z</time>
      </trkpt>
      <trkpt lat="44.68097" lon="0.88235">
        <ele>200.57</ele>
        <time>2013-09-22T07:43:59Z</time>
      </trkpt>
      <trkpt lat="44.68103" lon="0.88369">
        <ele>202.01</ele>
        <time>2013-09-22T07:44:17Z</time>
      </trkpt>
      <trkpt lat="44.68109" lon="0.88418">
        <ele>202.98</ele>
        <time>2013-09-22T07:44:24Z</time>
      </trkpt>
      <trkpt lat="44.6812" lon="0.88444">
        <ele>202.98</ele>
        <time>2013-09-22T07:44:33Z</time>
      </trkpt>
      <trkpt lat="44.6812" lon="0.88443">
        <ele>204.42</ele>
        <time>2013-09-22T07:44:49Z</time>
      </trkpt>
      <trkpt lat="44.6812" lon="0.88443">
        <ele>204.42</ele>
        <time>2013-09-22T07:44:50Z</time>
      </trkpt>
      <trkpt lat="44.68116" lon="0.88463">
        <ele>202.98</ele>
        <time>2013-09-22T07:44:58Z</time>
      </trkpt>
      <trkpt lat="44.68121" lon="0.88552">
        <ele>201.05</ele>
        <time>2013-09-22T07:45:11Z</time>
      </trkpt>
      <trkpt lat="44.68128" lon="0.88644">
        <ele>199.61</ele>
        <time>2013-09-22T07:45:24Z</time>
      </trkpt>
      <trkpt lat="44.68136" lon="0.88711">
        <ele>197.21</ele>
        <time>2013-09-22T07:45:33Z</time>
      </trkpt>
      <trkpt lat="44.68152" lon="0.88762">
        <ele>192.88</ele>
        <time>2013-09-22T07:45:38Z</time>
      </trkpt>
      <trkpt lat="44.6816" lon="0.88818">
        <ele>188.08</ele>
        <time>2013-09-22T07:45:43Z</time>
      </trkpt>
      <trkpt lat="44.68162" lon="0.88836">
        <ele>186.15</ele>
        <time>2013-09-22T07:45:45Z</time>
      </trkpt>
      <trkpt lat="44.68165" lon="0.88874">
        <ele>181.35</ele>
        <time>2013-09-22T07:45:50Z</time>
      </trkpt>
      <trkpt lat="44.68179" lon="0.88959">
        <ele>174.14</ele>
        <time>2013-09-22T07:45:59Z</time>
      </trkpt>
      <trkpt lat="44.68181" lon="0.8898">
        <ele>172.69</ele>
        <time>2013-09-22T07:46:01Z</time>
      </trkpt>
      <trkpt lat="44.6819" lon="0.8905">
        <ele>170.77</ele>
        <time>2013-09-22T07:46:07Z</time>
      </trkpt>
      <trkpt lat="44.68206" lon="0.8913">
        <ele>177.02</ele>
        <time>2013-09-22T07:46:17Z</time>
      </trkpt>
      <trkpt lat="44.68209" lon="0.89147">
        <ele>179.42</ele>
        <time>2013-09-22T07:46:21Z</time>
      </trkpt>
      <trkpt lat="44.68202" lon="0.89159">
        <ele>182.31</ele>
        <time>2013-09-22T07:46:32Z</time>
      </trkpt>
      <trkpt lat="44.68204" lon="0.89158">
        <ele>182.31</ele>
        <time>2013-09-22T07:46:50Z</time>
      </trkpt>
      <trkpt lat="44.68206" lon="0.8916">
        <ele>182.79</ele>
        <time>2013-09-22T07:47:08Z</time>
      </trkpt>
      <trkpt lat="44.68204" lon="0.89159">
        <ele>181.83</ele>
        <time>2013-09-22T07:47:24Z</time>
      </trkpt>
      <trkpt lat="44.68205" lon="0.89158">
        <ele>180.38</ele>
        <time>2013-09-22T07:47:48Z</time>
      </trkpt>
      <trkpt lat="44.68206" lon="0.89159">
        <ele>180.87</ele>
        <time>2013-09-22T07:48:02Z</time>
      </trkpt>
      <trkpt lat="44.68207" lon="0.89159">
        <ele>180.87</ele>
        <time>2013-09-22T07:48:22Z</time>
      </trkpt>
      <trkpt lat="44.68206" lon="0.89161">
        <ele>180.38</ele>
        <time>2013-09-22T07:48:47Z</time>
      </trkpt>
      <trkpt lat="44.68207" lon="0.8916">
        <ele>180.87</ele>
        <time>2013-09-22T07:49:20Z</time>
      </trkpt>
      <trkpt lat="44.68207" lon="0.89159">
        <ele>179.9</ele>
        <time>2013-09-22T07:49:45Z</time>
      </trkpt>
      <trkpt lat="44.68208" lon="0.89158">
        <ele>179.9</ele>
        <time>2013-09-22T07:50:10Z</time>
      </trkpt>
      <trkpt lat="44.68206" lon="0.89158">
        <ele>180.87</ele>
        <time>2013-09-22T07:50:31Z</time>
      </trkpt>
      <trkpt lat="44.68207" lon="0.89158">
        <ele>181.35</ele>
        <time>2013-09-22T07:50:45Z</time>
      </trkpt>
      <trkpt lat="44.68212" lon="0.89162">
        <ele>182.31</ele>
        <time>2013-09-22T07:50:50Z</time>
      </trkpt>
      <trkpt lat="44.68219" lon="0.89186">
        <ele>187.11</ele>
        <time>2013-09-22T07:51:00Z</time>
      </trkpt>
      <trkpt lat="44.68221" lon="0.89198">
        <ele>189.04</ele>
        <time>2013-09-22T07:51:05Z</time>
      </trkpt>
      <trkpt lat="44.68225" lon="0.89228">
        <ele>194.32</ele>
        <time>2013-09-22T07:51:18Z</time>
      </trkpt>
      <trkpt lat="44.68225" lon="0.8923">
        <ele>194.8</ele>
        <time>2013-09-22T07:51:19Z</time>
      </trkpt>
      <trkpt lat="44.68226" lon="0.89236">
        <ele>195.77</ele>
        <time>2013-09-22T07:51:21Z</time>
      </trkpt>
      <trkpt lat="44.68227" lon="0.89262">
        <ele>198.65</ele>
        <time>2013-09-22T07:51:32Z</time>
      </trkpt>
      <trkpt lat="44.68231" lon="0.89265">
        <ele>200.57</ele>
        <time>2013-09-22T07:51:42Z</time>
      </trkpt>
      <trkpt lat="44.6823" lon="0.89264">
        <ele>200.09</ele>
        <time>2013-09-22T07:51:59Z</time>
      </trkpt>
      <trkpt lat="44.6823" lon="0.89265">
        <ele>199.61</ele>
        <time>2013-09-22T07:52:26Z</time>
      </trkpt>
      <trkpt lat="44.6823" lon="0.89266">
        <ele>200.57</ele>
        <time>2013-09-22T07:52:44Z</time>
      </trkpt>
      <trkpt lat="44.68227" lon="0.89266">
        <ele>199.61</ele>
        <time>2013-09-22T07:53:08Z</time>
      </trkpt>
      <trkpt lat="44.68226" lon="0.89267">
        <ele>199.13</ele>
        <time>2013-09-22T07:53:32Z</time>
      </trkpt>
      <trkpt lat="44.68228" lon="0.89266">
        <ele>199.61</ele>
        <time>2013-09-22T07:53:51Z</time>
      </trkpt>
      <trkpt lat="44.68228" lon="0.89265">
        <ele>200.57</ele>
        <time>2013-09-22T07:54:02Z</time>
      </trkpt>
      <trkpt lat="44.68215" lon="0.89267">
        <ele>200.09</ele>
        <time>2013-09-22T07:54:12Z</time>
      </trkpt>
      <trkpt lat="44.68211" lon="0.8928">
        <ele>199.61</ele>
        <time>2013-09-22T07:54:17Z</time>
      </trkpt>
      <trkpt lat="44.68212" lon="0.89286">
        <ele>199.61</ele>
        <time>2013-09-22T07:54:19Z</time>
      </trkpt>
      <trkpt lat="44.68222" lon="0.89301">
        <ele>200.09</ele>
        <time>2013-09-22T07:54:27Z</time>
      </trkpt>
      <trkpt lat="44.68227" lon="0.89355">
        <ele>201.53</ele>
        <time>2013-09-22T07:54:42Z</time>
      </trkpt>
      <trkpt lat="44.68228" lon="0.89368">
        <ele>202.49</ele>
        <time>2013-09-22T07:54:48Z</time>
      </trkpt>
      <trkpt lat="44.68225" lon="0.89412">
        <ele>202.98</ele>
        <time>2013-09-22T07:55:02Z</time>
      </trkpt>
      <trkpt lat="44.68234" lon="0.89434">
        <ele>202.49</ele>
        <time>2013-09-22T07:55:14Z</time>
      </trkpt>
      <trkpt lat="44.68251" lon="0.89437">
        <ele>202.98</ele>
        <time>2013-09-22T07:55:24Z</time>
      </trkpt>
      <trkpt lat="44.68287" lon="0.89432">
        <ele>203.46</ele>
        <time>2013-09-22T07:55:37Z</time>
      </trkpt>
      <trkpt lat="44.68329" lon="0.89435">
        <ele>203.46</ele>
        <time>2013-09-22T07:55:50Z</time>
      </trkpt>
      <trkpt lat="44.68384" lon="0.89477">
        <ele>202.98</ele>
        <time>2013-09-22T07:56:05Z</time>
      </trkpt>
      <trkpt lat="44.68452" lon="0.89544">
        <ele>203.94</ele>
        <time>2013-09-22T07:56:22Z</time>
      </trkpt>
      <trkpt lat="44.68521" lon="0.89613">
        <ele>205.38</ele>
        <time>2013-09-22T07:56:41Z</time>
      </trkpt>
      <trkpt lat="44.68541" lon="0.89635">
        <ele>205.86</ele>
        <time>2013-09-22T07:56:47Z</time>
      </trkpt>
      <trkpt lat="44.6855" lon="0.89646">
        <ele>206.34</ele>
        <time>2013-09-22T07:56:50Z</time>
      </trkpt>
      <trkpt lat="44.68558" lon="0.8965">
        <ele>206.34</ele>
        <time>2013-09-22T07:56:52Z</time>
      </trkpt>
      <trkpt lat="44.68573" lon="0.89661">
        <ele>207.3</ele>
        <time>2013-09-22T07:56:56Z</time>
      </trkpt>
      <trkpt lat="44.68628" lon="0.89718">
        <ele>213.07</ele>
        <time>2013-09-22T07:57:14Z</time>
      </trkpt>
      <trkpt lat="44.68684" lon="0.89771">
        <ele>220.28</ele>
        <time>2013-09-22T07:57:32Z</time>
      </trkpt>
      <trkpt lat="44.68727" lon="0.89816">
        <ele>224.61</ele>
        <time>2013-09-22T07:57:48Z</time>
      </trkpt>
      <trkpt lat="44.68777" lon="0.89857">
        <ele>224.61</ele>
        <time>2013-09-22T07:58:02Z</time>
      </trkpt>
      <trkpt lat="44.68847" lon="0.89902">
        <ele>224.61</ele>
        <time>2013-09-22T07:58:18Z</time>
      </trkpt>
      <trkpt lat="44.68896" lon="0.89932">
        <ele>224.61</ele>
        <time>2013-09-22T07:58:32Z</time>
      </trkpt>
      <trkpt lat="44.68947" lon="0.89967">
        <ele>224.61</ele>
        <time>2013-09-22T07:58:48Z</time>
      </trkpt>
      <trkpt lat="44.6901" lon="0.90008">
        <ele>226.05</ele>
        <time>2013-09-22T07:59:06Z</time>
      </trkpt>
      <trkpt lat="44.69082" lon="0.90042">
        <ele>227.01</ele>
        <time>2013-09-22T07:59:26Z</time>
      </trkpt>
      <trkpt lat="44.69149" lon="0.90053">
        <ele>228.93</ele>
        <time>2013-09-22T07:59:43Z</time>
      </trkpt>
      <trkpt lat="44.6921" lon="0.90077">
        <ele>231.81</ele>
        <time>2013-09-22T07:59:58Z</time>
      </trkpt>
      <trkpt lat="44.69279" lon="0.90105">
        <ele>231.33</ele>
        <time>2013-09-22T08:00:15Z</time>
      </trkpt>
      <trkpt lat="44.69334" lon="0.90158">
        <ele>228.93</ele>
        <time>2013-09-22T08:00:30Z</time>
      </trkpt>
      <trkpt lat="44.69387" lon="0.90228">
        <ele>227.49</ele>
        <time>2013-09-22T08:00:47Z</time>
      </trkpt>
      <trkpt lat="44.69399" lon="0.90253">
        <ele>227.01</ele>
        <time>2013-09-22T08:00:52Z</time>
      </trkpt>
      <trkpt lat="44.69427" lon="0.90323">
        <ele>224.61</ele>
        <time>2013-09-22T08:01:06Z</time>
      </trkpt>
      <trkpt lat="44.69453" lon="0.90384">
        <ele>224.61</ele>
        <time>2013-09-22T08:01:20Z</time>
      </trkpt>
      <trkpt lat="44.69484" lon="0.90442">
        <ele>224.12</ele>
        <time>2013-09-22T08:01:34Z</time>
      </trkpt>
      <trkpt lat="44.6952" lon="0.90515">
        <ele>224.12</ele>
        <time>2013-09-22T08:01:50Z</time>
      </trkpt>
      <trkpt lat="44.69552" lon="0.90583">
        <ele>224.12</ele>
        <time>2013-09-22T08:02:05Z</time>
      </trkpt>
      <trkpt lat="44.69583" lon="0.90636">
        <ele>225.09</ele>
        <time>2013-09-22T08:02:18Z</time>
      </trkpt>
      <trkpt lat="44.69613" lon="0.9067">
        <ele>228.45</ele>
        <time>2013-09-22T08:02:29Z</time>
      </trkpt>
      <trkpt lat="44.69652" lon="0.90705">
        <ele>233.26</ele>
        <time>2013-09-22T08:02:41Z</time>
      </trkpt>
      <trkpt lat="44.69681" lon="0.90735">
        <ele>235.66</ele>
        <time>2013-09-22T08:02:51Z</time>
      </trkpt>
      <trkpt lat="44.69715" lon="0.90779">
        <ele>231.81</ele>
        <time>2013-09-22T08:03:04Z</time>
      </trkpt>
      <trkpt lat="44.69731" lon="0.90802">
        <ele>230.85</ele>
        <time>2013-09-22T08:03:13Z</time>
      </trkpt>
      <trkpt lat="44.69738" lon="0.90814">
        <ele>230.37</ele>
        <time>2013-09-22T08:03:17Z</time>
      </trkpt>
      <trkpt lat="44.69774" lon="0.90858">
        <ele>228.93</ele>
        <time>2013-09-22T08:03:29Z</time>
      </trkpt>
      <trkpt lat="44.69814" lon="0.90905">
        <ele>228.45</ele>
        <time>2013-09-22T08:03:44Z</time>
      </trkpt>
      <trkpt lat="44.69852" lon="0.90951">
        <ele>227.97</ele>
        <time>2013-09-22T08:03:58Z</time>
      </trkpt>
      <trkpt lat="44.69889" lon="0.90994">
        <ele>228.93</ele>
        <time>2013-09-22T08:04:10Z</time>
      </trkpt>
      <trkpt lat="44.69924" lon="0.9103">
        <ele>229.89</ele>
        <time>2013-09-22T08:04:21Z</time>
      </trkpt>
      <trkpt lat="44.69952" lon="0.91064">
        <ele>230.37</ele>
        <time>2013-09-22T08:04:33Z</time>
      </trkpt>
      <trkpt lat="44.69952" lon="0.91065">
        <ele>229.89</ele>
        <time>2013-09-22T08:04:47Z</time>
      </trkpt>
      <trkpt lat="44.69952" lon="0.91063">
        <ele>229.41</ele>
        <time>2013-09-22T08:05:07Z</time>
      </trkpt>
      <trkpt lat="44.69953" lon="0.91065">
        <ele>229.89</ele>
        <time>2013-09-22T08:05:16Z</time>
      </trkpt>
      <trkpt lat="44.69966" lon="0.91081">
        <ele>230.85</ele>
        <time>2013-09-22T08:05:23Z</time>
      </trkpt>
      <trkpt lat="44.70003" lon="0.9114">
        <ele>229.89</ele>
        <time>2013-09-22T08:05:40Z</time>
      </trkpt>
      <trkpt lat="44.70031" lon="0.91199">
        <ele>228.45</ele>
        <time>2013-09-22T08:05:55Z</time>
      </trkpt>
      <trkpt lat="44.70037" lon="0.91215">
        <ele>228.45</ele>
        <time>2013-09-22T08:06:05Z</time>
      </trkpt>
      <trkpt lat="44.70045" lon="0.91236">
        <ele>229.41</ele>
        <time>2013-09-22T08:06:20Z</time>
      </trkpt>
      <trkpt lat="44.7008" lon="0.91313">
        <ele>227.97</ele>
        <time>2013-09-22T08:06:36Z</time>
      </trkpt>
      <trkpt lat="44.70096" lon="0.91355">
        <ele>227.49</ele>
        <time>2013-09-22T08:06:43Z</time>
      </trkpt>
      <trkpt lat="44.70101" lon="0.91374">
        <ele>227.49</ele>
        <time>2013-09-22T08:06:46Z</time>
      </trkpt>
      <trkpt lat="44.70105" lon="0.91386">
        <ele>227.49</ele>
        <time>2013-09-22T08:06:48Z</time>
      </trkpt>
      <trkpt lat="44.70126" lon="0.91402">
        <ele>227.49</ele>
        <time>2013-09-22T08:06:53Z</time>
      </trkpt>
      <trkpt lat="44.702" lon="0.9143">
        <ele>228.93</ele>
        <time>2013-09-22T08:07:12Z</time>
      </trkpt>
      <trkpt lat="44.70223" lon="0.91437">
        <ele>229.41</ele>
        <time>2013-09-22T08:07:25Z</time>
      </trkpt>
      <trkpt lat="44.70251" lon="0.91454">
        <ele>230.37</ele>
        <time>2013-09-22T08:07:37Z</time>
      </trkpt>
      <trkpt lat="44.70271" lon="0.91465">
        <ele>230.37</ele>
        <time>2013-09-22T08:07:43Z</time>
      </trkpt>
      <trkpt lat="44.70287" lon="0.91453">
        <ele>228.93</ele>
        <time>2013-09-22T08:07:49Z</time>
      </trkpt>
      <trkpt lat="44.70292" lon="0.91371">
        <ele>225.09</ele>
        <time>2013-09-22T08:08:01Z</time>
      </trkpt>
      <trkpt lat="44.70295" lon="0.91355">
        <ele>224.12</ele>
        <time>2013-09-22T08:08:03Z</time>
      </trkpt>
      <trkpt lat="44.70323" lon="0.91335">
        <ele>222.2</ele>
        <time>2013-09-22T08:08:10Z</time>
      </trkpt>
      <trkpt lat="44.70358" lon="0.91346">
        <ele>223.16</ele>
        <time>2013-09-22T08:08:17Z</time>
      </trkpt>
      <trkpt lat="44.70391" lon="0.91363">
        <ele>227.01</ele>
        <time>2013-09-22T08:08:28Z</time>
      </trkpt>
      <trkpt lat="44.70403" lon="0.91368">
        <ele>228.45</ele>
        <time>2013-09-22T08:08:34Z</time>
      </trkpt>
      <trkpt lat="44.70405" lon="0.91381">
        <ele>231.81</ele>
        <time>2013-09-22T08:08:42Z</time>
      </trkpt>
      <trkpt lat="44.70408" lon="0.91437">
        <ele>235.18</ele>
        <time>2013-09-22T08:08:54Z</time>
      </trkpt>
      <trkpt lat="44.70422" lon="0.91449">
        <ele>234.22</ele>
        <time>2013-09-22T08:08:59Z</time>
      </trkpt>
      <trkpt lat="44.70439" lon="0.91455">
        <ele>233.74</ele>
        <time>2013-09-22T08:09:03Z</time>
      </trkpt>
      <trkpt lat="44.70448" lon="0.91461">
        <ele>233.74</ele>
        <time>2013-09-22T08:09:05Z</time>
      </trkpt>
      <trkpt lat="44.70457" lon="0.91465">
        <ele>232.78</ele>
        <time>2013-09-22T08:09:07Z</time>
      </trkpt>
      <trkpt lat="44.70511" lon="0.91476">
        <ele>231.33</ele>
        <time>2013-09-22T08:09:18Z</time>
      </trkpt>
      <trkpt lat="44.70563" lon="0.91508">
        <ele>233.26</ele>
        <time>2013-09-22T08:09:30Z</time>
      </trkpt>
      <trkpt lat="44.70593" lon="0.91545">
        <ele>236.14</ele>
        <time>2013-09-22T08:09:40Z</time>
      </trkpt>
      <trkpt lat="44.70613" lon="0.91578">
        <ele>239.02</ele>
        <time>2013-09-22T08:09:50Z</time>
      </trkpt>
      <trkpt lat="44.70647" lon="0.91617">
        <ele>242.87</ele>
        <time>2013-09-22T08:10:03Z</time>
      </trkpt>
      <trkpt lat="44.70676" lon="0.91624">
        <ele>241.43</ele>
        <time>2013-09-22T08:10:13Z</time>
      </trkpt>
      <trkpt lat="44.70681" lon="0.91622">
        <ele>241.91</ele>
        <time>2013-09-22T08:10:26Z</time>
      </trkpt>
      <trkpt lat="44.70682" lon="0.91618">
        <ele>241.43</ele>
        <time>2013-09-22T08:10:45Z</time>
      </trkpt>
      <trkpt lat="44.70677" lon="0.91624">
        <ele>238.54</ele>
        <time>2013-09-22T08:10:55Z</time>
      </trkpt>
      <trkpt lat="44.70675" lon="0.91627">
        <ele>238.06</ele>
        <time>2013-09-22T08:10:57Z</time>
      </trkpt>
      <trkpt lat="44.70669" lon="0.9165">
        <ele>236.14</ele>
        <time>2013-09-22T08:11:04Z</time>
      </trkpt>
      <trkpt lat="44.70653" lon="0.91674">
        <ele>234.22</ele>
        <time>2013-09-22T08:11:16Z</time>
      </trkpt>
      <trkpt lat="44.70642" lon="0.91672">
        <ele>234.22</ele>
        <time>2013-09-22T08:11:20Z</time>
      </trkpt>
      <trkpt lat="44.7061" lon="0.91667">
        <ele>235.66</ele>
        <time>2013-09-22T08:11:32Z</time>
      </trkpt>
      <trkpt lat="44.70595" lon="0.91682">
        <ele>237.58</ele>
        <time>2013-09-22T08:11:42Z</time>
      </trkpt>
      <trkpt lat="44.70571" lon="0.91705">
        <ele>237.58</ele>
        <time>2013-09-22T08:11:51Z</time>
      </trkpt>
      <trkpt lat="44.70554" lon="0.9172">
        <ele>235.66</ele>
        <time>2013-09-22T08:12:01Z</time>
      </trkpt>
      <trkpt lat="44.70523" lon="0.91735">
        <ele>233.74</ele>
        <time>2013-09-22T08:12:12Z</time>
      </trkpt>
      <trkpt lat="44.70483" lon="0.91783">
        <ele>230.85</ele>
        <time>2013-09-22T08:12:26Z</time>
      </trkpt>
      <trkpt lat="44.70448" lon="0.91835">
        <ele>230.37</ele>
        <time>2013-09-22T08:12:40Z</time>
      </trkpt>
      <trkpt lat="44.70411" lon="0.91889">
        <ele>230.85</ele>
        <time>2013-09-22T08:12:56Z</time>
      </trkpt>
      <trkpt lat="44.70404" lon="0.91895">
        <ele>230.37</ele>
        <time>2013-09-22T08:12:58Z</time>
      </trkpt>
      <trkpt lat="44.70379" lon="0.91918">
        <ele>227.97</ele>
        <time>2013-09-22T08:13:04Z</time>
      </trkpt>
      <trkpt lat="44.70331" lon="0.91968">
        <ele>227.01</ele>
        <time>2013-09-22T08:13:18Z</time>
      </trkpt>
      <trkpt lat="44.70275" lon="0.92023">
        <ele>227.49</ele>
        <time>2013-09-22T08:13:34Z</time>
      </trkpt>
      <trkpt lat="44.70273" lon="0.92025">
        <ele>227.49</ele>
        <time>2013-09-22T08:13:35Z</time>
      </trkpt>
      <trkpt lat="44.70271" lon="0.92028">
        <ele>227.49</ele>
        <time>2013-09-22T08:13:43Z</time>
      </trkpt>
      <trkpt lat="44.70276" lon="0.92039">
        <ele>227.97</ele>
        <time>2013-09-22T08:13:48Z</time>
      </trkpt>
      <trkpt lat="44.70346" lon="0.92067">
        <ele>227.01</ele>
        <time>2013-09-22T08:14:05Z</time>
      </trkpt>
      <trkpt lat="44.70419" lon="0.92113">
        <ele>227.49</ele>
        <time>2013-09-22T08:14:22Z</time>
      </trkpt>
      <trkpt lat="44.70516" lon="0.92182">
        <ele>229.41</ele>
        <time>2013-09-22T08:14:43Z</time>
      </trkpt>
      <trkpt lat="44.70615" lon="0.92251">
        <ele>231.33</ele>
        <time>2013-09-22T08:15:04Z</time>
      </trkpt>
      <trkpt lat="44.70696" lon="0.92327">
        <ele>232.78</ele>
        <time>2013-09-22T08:15:23Z</time>
      </trkpt>
      <trkpt lat="44.70717" lon="0.92368">
        <ele>233.26</ele>
        <time>2013-09-22T08:15:31Z</time>
      </trkpt>
      <trkpt lat="44.70703" lon="0.92395">
        <ele>235.18</ele>
        <time>2013-09-22T08:15:38Z</time>
      </trkpt>
      <trkpt lat="44.70654" lon="0.92457">
        <ele>240.47</ele>
        <time>2013-09-22T08:15:56Z</time>
      </trkpt>
      <trkpt lat="44.70609" lon="0.92516">
        <ele>241.43</ele>
        <time>2013-09-22T08:16:12Z</time>
      </trkpt>
      <trkpt lat="44.70564" lon="0.92578">
        <ele>240.95</ele>
        <time>2013-09-22T08:16:26Z</time>
      </trkpt>
      <trkpt lat="44.70546" lon="0.92601">
        <ele>240.47</ele>
        <time>2013-09-22T08:16:31Z</time>
      </trkpt>
      <trkpt lat="44.70482" lon="0.92688">
        <ele>240.47</ele>
        <time>2013-09-22T08:16:50Z</time>
      </trkpt>
      <trkpt lat="44.70434" lon="0.92747">
        <ele>238.54</ele>
        <time>2013-09-22T08:17:05Z</time>
      </trkpt>
      <trkpt lat="44.70376" lon="0.92795">
        <ele>237.58</ele>
        <time>2013-09-22T08:17:21Z</time>
      </trkpt>
      <trkpt lat="44.70362" lon="0.92808">
        <ele>238.06</ele>
        <time>2013-09-22T08:17:25Z</time>
      </trkpt>
      <trkpt lat="44.70308" lon="0.9285">
        <ele>239.02</ele>
        <time>2013-09-22T08:17:40Z</time>
      </trkpt>
      <trkpt lat="44.7024" lon="0.92903">
        <ele>241.43</ele>
        <time>2013-09-22T08:17:58Z</time>
      </trkpt>
      <trkpt lat="44.70224" lon="0.92914">
        <ele>241.43</ele>
        <time>2013-09-22T08:18:04Z</time>
      </trkpt>
      <trkpt lat="44.70225" lon="0.92934">
        <ele>241.43</ele>
        <time>2013-09-22T08:18:10Z</time>
      </trkpt>
      <trkpt lat="44.7024" lon="0.93016">
        <ele>236.14</ele>
        <time>2013-09-22T08:18:21Z</time>
      </trkpt>
      <trkpt lat="44.70254" lon="0.93099">
        <ele>233.74</ele>
        <time>2013-09-22T08:18:32Z</time>
      </trkpt>
      <trkpt lat="44.70255" lon="0.93105">
        <ele>234.22</ele>
        <time>2013-09-22T08:18:42Z</time>
      </trkpt>
      <trkpt lat="44.70256" lon="0.93108">
        <ele>234.22</ele>
        <time>2013-09-22T08:18:59Z</time>
      </trkpt>
      <trkpt lat="44.70258" lon="0.9311">
        <ele>234.7</ele>
        <time>2013-09-22T08:19:12Z</time>
      </trkpt>
      <trkpt lat="44.70257" lon="0.93115">
        <ele>234.22</ele>
        <time>2013-09-22T08:19:25Z</time>
      </trkpt>
      <trkpt lat="44.70256" lon="0.93119">
        <ele>232.78</ele>
        <time>2013-09-22T08:19:43Z</time>
      </trkpt>
      <trkpt lat="44.70256" lon="0.9312">
        <ele>233.26</ele>
        <time>2013-09-22T08:19:56Z</time>
      </trkpt>
      <trkpt lat="44.70256" lon="0.93121">
        <ele>233.74</ele>
        <time>2013-09-22T08:20:31Z</time>
      </trkpt>
      <trkpt lat="44.70256" lon="0.93121">
        <ele>233.74</ele>
        <time>2013-09-22T08:20:35Z</time>
      </trkpt>
      <trkpt lat="44.70237" lon="0.93143">
        <ele>232.78</ele>
        <time>2013-09-22T08:20:48Z</time>
      </trkpt>
      <trkpt lat="44.70194" lon="0.93185">
        <ele>230.85</ele>
        <time>2013-09-22T08:21:04Z</time>
      </trkpt>
      <trkpt lat="44.70191" lon="0.93191">
        <ele>230.37</ele>
        <time>2013-09-22T08:21:13Z</time>
      </trkpt>
      <trkpt lat="44.70187" lon="0.93194">
        <ele>229.89</ele>
        <time>2013-09-22T08:21:25Z</time>
      </trkpt>
      <trkpt lat="44.70185" lon="0.93195">
        <ele>229.89</ele>
        <time>2013-09-22T08:21:44Z</time>
      </trkpt>
      <trkpt lat="44.70185" lon="0.93196">
        <ele>229.89</ele>
        <time>2013-09-22T08:21:47Z</time>
      </trkpt>
      <trkpt lat="44.7018" lon="0.93199">
        <ele>229.41</ele>
        <time>2013-09-22T08:21:51Z</time>
      </trkpt>
      <trkpt lat="44.70148" lon="0.9323">
        <ele>227.49</ele>
        <time>2013-09-22T08:22:04Z</time>
      </trkpt>
      <trkpt lat="44.70141" lon="0.93237">
        <ele>227.01</ele>
        <time>2013-09-22T08:22:06Z</time>
      </trkpt>
      <trkpt lat="44.7011" lon="0.93274">
        <ele>225.57</ele>
        <time>2013-09-22T08:22:17Z</time>
      </trkpt>
      <trkpt lat="44.70103" lon="0.93281">
        <ele>225.09</ele>
        <time>2013-09-22T08:22:19Z</time>
      </trkpt>
      <trkpt lat="44.70051" lon="0.93344">
        <ele>223.64</ele>
        <time>2013-09-22T08:22:31Z</time>
      </trkpt>
      <trkpt lat="44.7" lon="0.93411">
        <ele>222.2</ele>
        <time>2013-09-22T08:22:41Z</time>
      </trkpt>
      <trkpt lat="44.69996" lon="0.93421">
        <ele>222.2</ele>
        <time>2013-09-22T08:22:44Z</time>
      </trkpt>
      <trkpt lat="44.69999" lon="0.93428">
        <ele>223.16</ele>
        <time>2013-09-22T08:22:48Z</time>
      </trkpt>
      <trkpt lat="44.70016" lon="0.93436">
        <ele>224.61</ele>
        <time>2013-09-22T08:22:56Z</time>
      </trkpt>
      <trkpt lat="44.70023" lon="0.93443">
        <ele>224.61</ele>
        <time>2013-09-22T08:23:00Z</time>
      </trkpt>
      <trkpt lat="44.70031" lon="0.93449">
        <ele>224.61</ele>
        <time>2013-09-22T08:23:05Z</time>
      </trkpt>
      <trkpt lat="44.70056" lon="0.93486">
        <ele>225.57</ele>
        <time>2013-09-22T08:23:22Z</time>
      </trkpt>
      <trkpt lat="44.70087" lon="0.93543">
        <ele>225.09</ele>
        <time>2013-09-22T08:23:38Z</time>
      </trkpt>
      <trkpt lat="44.70114" lon="0.93584">
        <ele>226.53</ele>
        <time>2013-09-22T08:23:50Z</time>
      </trkpt>
      <trkpt lat="44.70109" lon="0.93605">
        <ele>226.05</ele>
        <time>2013-09-22T08:23:56Z</time>
      </trkpt>
      <trkpt lat="44.70066" lon="0.93671">
        <ele>226.53</ele>
        <time>2013-09-22T08:24:10Z</time>
      </trkpt>
      <trkpt lat="44.70061" lon="0.93681">
        <ele>226.53</ele>
        <time>2013-09-22T08:24:12Z</time>
      </trkpt>
      <trkpt lat="44.70055" lon="0.9371">
        <ele>227.01</ele>
        <time>2013-09-22T08:24:17Z</time>
      </trkpt>
      <trkpt lat="44.70062" lon="0.93788">
        <ele>230.37</ele>
        <time>2013-09-22T08:24:32Z</time>
      </trkpt>
      <trkpt lat="44.70059" lon="0.93812">
        <ele>230.85</ele>
        <time>2013-09-22T08:24:37Z</time>
      </trkpt>
      <trkpt lat="44.70057" lon="0.93831">
        <ele>230.85</ele>
        <time>2013-09-22T08:24:40Z</time>
      </trkpt>
      <trkpt lat="44.70054" lon="0.93873">
        <ele>232.3</ele>
        <time>2013-09-22T08:24:47Z</time>
      </trkpt>
      <trkpt lat="44.70056" lon="0.93909">
        <ele>232.78</ele>
        <time>2013-09-22T08:24:53Z</time>
      </trkpt>
      <trkpt lat="44.70058" lon="0.93927">
        <ele>233.26</ele>
        <time>2013-09-22T08:24:56Z</time>
      </trkpt>
      <trkpt lat="44.70072" lon="0.94013">
        <ele>237.1</ele>
        <time>2013-09-22T08:25:12Z</time>
      </trkpt>
      <trkpt lat="44.7007" lon="0.94073">
        <ele>239.99</ele>
        <time>2013-09-22T08:25:25Z</time>
      </trkpt>
      <trkpt lat="44.70056" lon="0.94134">
        <ele>243.35</ele>
        <time>2013-09-22T08:25:38Z</time>
      </trkpt>
      <trkpt lat="44.70026" lon="0.94202">
        <ele>244.79</ele>
        <time>2013-09-22T08:25:54Z</time>
      </trkpt>
      <trkpt lat="44.70006" lon="0.94256">
        <ele>246.72</ele>
        <time>2013-09-22T08:26:08Z</time>
      </trkpt>
      <trkpt lat="44.69998" lon="0.94267">
        <ele>247.2</ele>
        <time>2013-09-22T08:26:19Z</time>
      </trkpt>
      <trkpt lat="44.69999" lon="0.94264">
        <ele>248.16</ele>
        <time>2013-09-22T08:26:27Z</time>
      </trkpt>
      <trkpt lat="44.69992" lon="0.94268">
        <ele>247.68</ele>
        <time>2013-09-22T08:26:31Z</time>
      </trkpt>
      <trkpt lat="44.6994" lon="0.94307">
        <ele>245.27</ele>
        <time>2013-09-22T08:26:44Z</time>
      </trkpt>
      <trkpt lat="44.69908" lon="0.9433">
        <ele>244.31</ele>
        <time>2013-09-22T08:26:51Z</time>
      </trkpt>
      <trkpt lat="44.6987" lon="0.94365">
        <ele>242.39</ele>
        <time>2013-09-22T08:26:59Z</time>
      </trkpt>
      <trkpt lat="44.69837" lon="0.94374">
        <ele>240.95</ele>
        <time>2013-09-22T08:27:05Z</time>
      </trkpt>
      <trkpt lat="44.69806" lon="0.94366">
        <ele>240.95</ele>
        <time>2013-09-22T08:27:11Z</time>
      </trkpt>
      <trkpt lat="44.69735" lon="0.94349">
        <ele>238.54</ele>
        <time>2013-09-22T08:27:24Z</time>
      </trkpt>
      <trkpt lat="44.69659" lon="0.94332">
        <ele>234.22</ele>
        <time>2013-09-22T08:27:34Z</time>
      </trkpt>
      <trkpt lat="44.69629" lon="0.9435">
        <ele>231.81</ele>
        <time>2013-09-22T08:27:41Z</time>
      </trkpt>
      <trkpt lat="44.69621" lon="0.94377">
        <ele>232.3</ele>
        <time>2013-09-22T08:27:46Z</time>
      </trkpt>
      <trkpt lat="44.69615" lon="0.94412">
        <ele>231.81</ele>
        <time>2013-09-22T08:27:57Z</time>
      </trkpt>
      <trkpt lat="44.69613" lon="0.94415">
        <ele>231.81</ele>
        <time>2013-09-22T08:28:10Z</time>
      </trkpt>
      <trkpt lat="44.69613" lon="0.94416">
        <ele>232.3</ele>
        <time>2013-09-22T08:28:23Z</time>
      </trkpt>
      <trkpt lat="44.69613" lon="0.94417">
        <ele>232.78</ele>
        <time>2013-09-22T08:28:39Z</time>
      </trkpt>
      <trkpt lat="44.69608" lon="0.94419">
        <ele>231.33</ele>
        <time>2013-09-22T08:28:50Z</time>
      </trkpt>
      <trkpt lat="44.69608" lon="0.94418">
        <ele>231.81</ele>
        <time>2013-09-22T08:29:27Z</time>
      </trkpt>
      <trkpt lat="44.69611" lon="0.94418">
        <ele>232.3</ele>
        <time>2013-09-22T08:30:11Z</time>
      </trkpt>
      <trkpt lat="44.69608" lon="0.94421">
        <ele>233.74</ele>
        <time>2013-09-22T08:30:43Z</time>
      </trkpt>
      <trkpt lat="44.6961" lon="0.9442">
        <ele>233.74</ele>
        <time>2013-09-22T08:31:16Z</time>
      </trkpt>
      <trkpt lat="44.6961" lon="0.94422">
        <ele>234.7</ele>
        <time>2013-09-22T08:31:48Z</time>
      </trkpt>
      <trkpt lat="44.6961" lon="0.9442">
        <ele>231.33</ele>
        <time>2013-09-22T08:32:17Z</time>
      </trkpt>
      <trkpt lat="44.69608" lon="0.9442">
        <ele>231.33</ele>
        <time>2013-09-22T08:32:47Z</time>
      </trkpt>
      <trkpt lat="44.69607" lon="0.94419">
        <ele>234.22</ele>
        <time>2013-09-22T08:33:25Z</time>
      </trkpt>
      <trkpt lat="44.69608" lon="0.94417">
        <ele>234.22</ele>
        <time>2013-09-22T08:33:41Z</time>
      </trkpt>
      <trkpt lat="44.69607" lon="0.94416">
        <ele>234.22</ele>
        <time>2013-09-22T08:33:50Z</time>
      </trkpt>
      <trkpt lat="44.69604" lon="0.94411">
        <ele>233.74</ele>
        <time>2013-09-22T08:33:54Z</time>
      </trkpt>
      <trkpt lat="44.69577" lon="0.94362">
        <ele>230.37</ele>
        <time>2013-09-22T08:34:04Z</time>
      </trkpt>
      <trkpt lat="44.69562" lon="0.94329">
        <ele>228.45</ele>
        <time>2013-09-22T08:34:08Z</time>
      </trkpt>
      <trkpt lat="44.69551" lon="0.94287">
        <ele>226.05</ele>
        <time>2013-09-22T08:34:12Z</time>
      </trkpt>
      <trkpt lat="44.69547" lon="0.94254">
        <ele>224.61</ele>
        <time>2013-09-22T08:34:15Z</time>
      </trkpt>
      <trkpt lat="44.69557" lon="0.94156">
        <ele>220.76</ele>
        <time>2013-09-22T08:34:24Z</time>
      </trkpt>
      <trkpt lat="44.69555" lon="0.94134">
        <ele>219.8</ele>
        <time>2013-09-22T08:34:26Z</time>
      </trkpt>
      <trkpt lat="44.6955" lon="0.94118">
        <ele>218.84</ele>
        <time>2013-09-22T08:34:28Z</time>
      </trkpt>
      <trkpt lat="44.69537" lon="0.94092">
        <ele>217.4</ele>
        <time>2013-09-22T08:34:38Z</time>
      </trkpt>
      <trkpt lat="44.69534" lon="0.94092">
        <ele>219.8</ele>
        <time>2013-09-22T08:34:49Z</time>
      </trkpt>
      <trkpt lat="44.6953" lon="0.9409">
        <ele>219.8</ele>
        <time>2013-09-22T08:34:53Z</time>
      </trkpt>
      <trkpt lat="44.69528" lon="0.94088">
        <ele>220.28</ele>
        <time>2013-09-22T08:34:55Z</time>
      </trkpt>
      <trkpt lat="44.69491" lon="0.9408">
        <ele>221.24</ele>
        <time>2013-09-22T08:35:08Z</time>
      </trkpt>
      <trkpt lat="44.69441" lon="0.9409">
        <ele>219.8</ele>
        <time>2013-09-22T08:35:21Z</time>
      </trkpt>
      <trkpt lat="44.69417" lon="0.94106">
        <ele>218.36</ele>
        <time>2013-09-22T08:35:28Z</time>
      </trkpt>
      <trkpt lat="44.69375" lon="0.94182">
        <ele>220.28</ele>
        <time>2013-09-22T08:35:40Z</time>
      </trkpt>
      <trkpt lat="44.69323" lon="0.94284">
        <ele>223.64</ele>
        <time>2013-09-22T08:35:54Z</time>
      </trkpt>
      <trkpt lat="44.69285" lon="0.94354">
        <ele>225.57</ele>
        <time>2013-09-22T08:36:03Z</time>
      </trkpt>
      <trkpt lat="44.69276" lon="0.94366">
        <ele>226.53</ele>
        <time>2013-09-22T08:36:05Z</time>
      </trkpt>
      <trkpt lat="44.69253" lon="0.94382">
        <ele>227.01</ele>
        <time>2013-09-22T08:36:09Z</time>
      </trkpt>
      <trkpt lat="44.69224" lon="0.94389">
        <ele>227.01</ele>
        <time>2013-09-22T08:36:14Z</time>
      </trkpt>
      <trkpt lat="44.69122" lon="0.94438">
        <ele>226.53</ele>
        <time>2013-09-22T08:36:29Z</time>
      </trkpt>
      <trkpt lat="44.691" lon="0.94454">
        <ele>223.16</ele>
        <time>2013-09-22T08:36:32Z</time>
      </trkpt>
      <trkpt lat="44.69075" lon="0.9447">
        <ele>214.51</ele>
        <time>2013-09-22T08:36:38Z</time>
      </trkpt>
      <trkpt lat="44.69058" lon="0.94478">
        <ele>209.7</ele>
        <time>2013-09-22T08:36:44Z</time>
      </trkpt>
      <trkpt lat="44.6906" lon="0.94479">
        <ele>207.3</ele>
        <time>2013-09-22T08:36:49Z</time>
      </trkpt>
      <trkpt lat="44.69078" lon="0.94464">
        <ele>205.86</ele>
        <time>2013-09-22T08:36:55Z</time>
      </trkpt>
      <trkpt lat="44.69094" lon="0.94456">
        <ele>205.86</ele>
        <time>2013-09-22T08:37:00Z</time>
      </trkpt>
      <trkpt lat="44.6909" lon="0.94439">
        <ele>205.86</ele>
        <time>2013-09-22T08:37:06Z</time>
      </trkpt>
      <trkpt lat="44.69039" lon="0.94411">
        <ele>209.22</ele>
        <time>2013-09-22T08:37:22Z</time>
      </trkpt>
      <trkpt lat="44.68979" lon="0.94408">
        <ele>211.15</ele>
        <time>2013-09-22T08:37:37Z</time>
      </trkpt>
      <trkpt lat="44.6893" lon="0.94403">
        <ele>211.63</ele>
        <time>2013-09-22T08:37:49Z</time>
      </trkpt>
      <trkpt lat="44.68899" lon="0.94389">
        <ele>212.11</ele>
        <time>2013-09-22T08:37:56Z</time>
      </trkpt>
      <trkpt lat="44.68884" lon="0.94378">
        <ele>212.59</ele>
        <time>2013-09-22T08:38:00Z</time>
      </trkpt>
      <trkpt lat="44.68871" lon="0.94367">
        <ele>211.63</ele>
        <time>2013-09-22T08:38:04Z</time>
      </trkpt>
      <trkpt lat="44.6885" lon="0.94338">
        <ele>207.78</ele>
        <time>2013-09-22T08:38:10Z</time>
      </trkpt>
      <trkpt lat="44.68843" lon="0.94327">
        <ele>205.86</ele>
        <time>2013-09-22T08:38:12Z</time>
      </trkpt>
      <trkpt lat="44.68834" lon="0.94315">
        <ele>204.42</ele>
        <time>2013-09-22T08:38:14Z</time>
      </trkpt>
      <trkpt lat="44.68811" lon="0.94295">
        <ele>202.49</ele>
        <time>2013-09-22T08:38:18Z</time>
      </trkpt>
      <trkpt lat="44.68793" lon="0.94277">
        <ele>200.57</ele>
        <time>2013-09-22T08:38:21Z</time>
      </trkpt>
      <trkpt lat="44.68777" lon="0.94265">
        <ele>199.13</ele>
        <time>2013-09-22T08:38:23Z</time>
      </trkpt>
      <trkpt lat="44.68709" lon="0.94232">
        <ele>194.32</ele>
        <time>2013-09-22T08:38:31Z</time>
      </trkpt>
      <trkpt lat="44.6869" lon="0.94217">
        <ele>193.36</ele>
        <time>2013-09-22T08:38:34Z</time>
      </trkpt>
      <trkpt lat="44.68647" lon="0.94185">
        <ele>190.96</ele>
        <time>2013-09-22T08:38:40Z</time>
      </trkpt>
      <trkpt lat="44.68556" lon="0.94103">
        <ele>183.27</ele>
        <time>2013-09-22T08:38:52Z</time>
      </trkpt>
      <trkpt lat="44.68527" lon="0.9408">
        <ele>181.35</ele>
        <time>2013-09-22T08:38:56Z</time>
      </trkpt>
      <trkpt lat="44.68479" lon="0.94072">
        <ele>181.83</ele>
        <time>2013-09-22T08:39:02Z</time>
      </trkpt>
      <trkpt lat="44.68417" lon="0.94082">
        <ele>181.35</ele>
        <time>2013-09-22T08:39:09Z</time>
      </trkpt>
      <trkpt lat="44.68379" lon="0.94072">
        <ele>180.38</ele>
        <time>2013-09-22T08:39:14Z</time>
      </trkpt>
      <trkpt lat="44.6834" lon="0.94044">
        <ele>178.46</ele>
        <time>2013-09-22T08:39:22Z</time>
      </trkpt>
      <trkpt lat="44.68311" lon="0.94044">
        <ele>177.02</ele>
        <time>2013-09-22T08:39:34Z</time>
      </trkpt>
      <trkpt lat="44.68299" lon="0.94053">
        <ele>176.06</ele>
        <time>2013-09-22T08:39:49Z</time>
      </trkpt>
      <trkpt lat="44.68266" lon="0.94084">
        <ele>174.14</ele>
        <time>2013-09-22T08:40:00Z</time>
      </trkpt>
      <trkpt lat="44.6826" lon="0.9409">
        <ele>172.69</ele>
        <time>2013-09-22T08:40:09Z</time>
      </trkpt>
      <trkpt lat="44.68263" lon="0.94087">
        <ele>173.17</ele>
        <time>2013-09-22T08:40:23Z</time>
      </trkpt>
      <trkpt lat="44.68262" lon="0.94085">
        <ele>172.69</ele>
        <time>2013-09-22T08:40:26Z</time>
      </trkpt>
      <trkpt lat="44.68278" lon="0.94072">
        <ele>173.17</ele>
        <time>2013-09-22T08:40:34Z</time>
      </trkpt>
      <trkpt lat="44.683" lon="0.94086">
        <ele>173.66</ele>
        <time>2013-09-22T08:40:39Z</time>
      </trkpt>
      <trkpt lat="44.68341" lon="0.94131">
        <ele>174.14</ele>
        <time>2013-09-22T08:40:51Z</time>
      </trkpt>
      <trkpt lat="44.68388" lon="0.9416">
        <ele>176.06</ele>
        <time>2013-09-22T08:41:06Z</time>
      </trkpt>
      <trkpt lat="44.68392" lon="0.94188">
        <ele>176.54</ele>
        <time>2013-09-22T08:41:19Z</time>
      </trkpt>
      <trkpt lat="44.68398" lon="0.94227">
        <ele>177.02</ele>
        <time>2013-09-22T08:41:32Z</time>
      </trkpt>
      <trkpt lat="44.68401" lon="0.94273">
        <ele>176.06</ele>
        <time>2013-09-22T08:41:44Z</time>
      </trkpt>
      <trkpt lat="44.684" lon="0.94315">
        <ele>178.46</ele>
        <time>2013-09-22T08:41:56Z</time>
      </trkpt>
      <trkpt lat="44.68393" lon="0.94364">
        <ele>180.87</ele>
        <time>2013-09-22T08:42:08Z</time>
      </trkpt>
      <trkpt lat="44.68388" lon="0.9443">
        <ele>184.23</ele>
        <time>2013-09-22T08:42:25Z</time>
      </trkpt>
      <trkpt lat="44.68389" lon="0.94482">
        <ele>185.67</ele>
        <time>2013-09-22T08:42:37Z</time>
      </trkpt>
      <trkpt lat="44.68395" lon="0.9454">
        <ele>182.31</ele>
        <time>2013-09-22T08:42:48Z</time>
      </trkpt>
      <trkpt lat="44.68406" lon="0.94616">
        <ele>182.31</ele>
        <time>2013-09-22T08:43:02Z</time>
      </trkpt>
      <trkpt lat="44.68409" lon="0.94659">
        <ele>180.87</ele>
        <time>2013-09-22T08:43:11Z</time>
      </trkpt>
      <trkpt lat="44.68406" lon="0.94684">
        <ele>179.42</ele>
        <time>2013-09-22T08:43:19Z</time>
      </trkpt>
      <trkpt lat="44.68404" lon="0.94684">
        <ele>177.98</ele>
        <time>2013-09-22T08:43:36Z</time>
      </trkpt>
      <trkpt lat="44.68402" lon="0.94687">
        <ele>179.9</ele>
        <time>2013-09-22T08:43:52Z</time>
      </trkpt>
      <trkpt lat="44.68395" lon="0.94681">
        <ele>180.38</ele>
        <time>2013-09-22T08:43:57Z</time>
      </trkpt>
      <trkpt lat="44.6838" lon="0.94617">
        <ele>180.38</ele>
        <time>2013-09-22T08:44:08Z</time>
      </trkpt>
      <trkpt lat="44.68373" lon="0.94591">
        <ele>179.9</ele>
        <time>2013-09-22T08:44:12Z</time>
      </trkpt>
      <trkpt lat="44.68347" lon="0.94583">
        <ele>177.5</ele>
        <time>2013-09-22T08:44:19Z</time>
      </trkpt>
      <trkpt lat="44.68284" lon="0.94622">
        <ele>177.5</ele>
        <time>2013-09-22T08:44:35Z</time>
      </trkpt>
      <trkpt lat="44.68244" lon="0.94626">
        <ele>179.9</ele>
        <time>2013-09-22T08:44:47Z</time>
      </trkpt>
      <trkpt lat="44.682" lon="0.94617">
        <ele>181.35</ele>
        <time>2013-09-22T08:45:00Z</time>
      </trkpt>
      <trkpt lat="44.68166" lon="0.94609">
        <ele>183.27</ele>
        <time>2013-09-22T08:45:12Z</time>
      </trkpt>
      <trkpt lat="44.68135" lon="0.94619">
        <ele>188.08</ele>
        <time>2013-09-22T08:45:24Z</time>
      </trkpt>
      <trkpt lat="44.68126" lon="0.94624">
        <ele>191.92</ele>
        <time>2013-09-22T08:45:28Z</time>
      </trkpt>
      <trkpt lat="44.6811" lon="0.94633">
        <ele>195.77</ele>
        <time>2013-09-22T08:45:34Z</time>
      </trkpt>
      <trkpt lat="44.68079" lon="0.94651">
        <ele>201.53</ele>
        <time>2013-09-22T08:45:47Z</time>
      </trkpt>
      <trkpt lat="44.68071" lon="0.94657">
        <ele>203.94</ele>
        <time>2013-09-22T08:45:51Z</time>
      </trkpt>
      <trkpt lat="44.6804" lon="0.94671">
        <ele>212.11</ele>
        <time>2013-09-22T08:46:05Z</time>
      </trkpt>
      <trkpt lat="44.67984" lon="0.94701">
        <ele>219.8</ele>
        <time>2013-09-22T08:46:19Z</time>
      </trkpt>
      <trkpt lat="44.67942" lon="0.94718">
        <ele>222.2</ele>
        <time>2013-09-22T08:46:31Z</time>
      </trkpt>
      <trkpt lat="44.67904" lon="0.94733">
        <ele>227.01</ele>
        <time>2013-09-22T08:46:42Z</time>
      </trkpt>
      <trkpt lat="44.67859" lon="0.94749">
        <ele>230.85</ele>
        <time>2013-09-22T08:46:55Z</time>
      </trkpt>
      <trkpt lat="44.67808" lon="0.94774">
        <ele>228.93</ele>
        <time>2013-09-22T08:47:10Z</time>
      </trkpt>
      <trkpt lat="44.67793" lon="0.94783">
        <ele>227.49</ele>
        <time>2013-09-22T08:47:13Z</time>
      </trkpt>
      <trkpt lat="44.67789" lon="0.94763">
        <ele>221.24</ele>
        <time>2013-09-22T08:47:25Z</time>
      </trkpt>
      <trkpt lat="44.67806" lon="0.9472">
        <ele>216.43</ele>
        <time>2013-09-22T08:47:37Z</time>
      </trkpt>
      <trkpt lat="44.67818" lon="0.94673">
        <ele>214.03</ele>
        <time>2013-09-22T08:47:48Z</time>
      </trkpt>
      <trkpt lat="44.67815" lon="0.9466">
        <ele>214.03</ele>
        <time>2013-09-22T08:47:51Z</time>
      </trkpt>
      <trkpt lat="44.67785" lon="0.94647">
        <ele>216.43</ele>
        <time>2013-09-22T08:48:01Z</time>
      </trkpt>
      <trkpt lat="44.67778" lon="0.94646">
        <ele>217.4</ele>
        <time>2013-09-22T08:48:11Z</time>
      </trkpt>
      <trkpt lat="44.67765" lon="0.94642">
        <ele>217.88</ele>
        <time>2013-09-22T08:48:15Z</time>
      </trkpt>
      <trkpt lat="44.67736" lon="0.94629">
        <ele>219.32</ele>
        <time>2013-09-22T08:48:22Z</time>
      </trkpt>
      <trkpt lat="44.6768" lon="0.94608">
        <ele>217.4</ele>
        <time>2013-09-22T08:48:33Z</time>
      </trkpt>
      <trkpt lat="44.67614" lon="0.94586">
        <ele>217.88</ele>
        <time>2013-09-22T08:48:47Z</time>
      </trkpt>
      <trkpt lat="44.67588" lon="0.94581">
        <ele>218.36</ele>
        <time>2013-09-22T08:48:57Z</time>
      </trkpt>
      <trkpt lat="44.67561" lon="0.9459">
        <ele>218.36</ele>
        <time>2013-09-22T08:49:08Z</time>
      </trkpt>
      <trkpt lat="44.67537" lon="0.94603">
        <ele>222.2</ele>
        <time>2013-09-22T08:49:19Z</time>
      </trkpt>
      <trkpt lat="44.67495" lon="0.94615">
        <ele>223.16</ele>
        <time>2013-09-22T08:49:31Z</time>
      </trkpt>
      <trkpt lat="44.67451" lon="0.94613">
        <ele>226.53</ele>
        <time>2013-09-22T08:49:44Z</time>
      </trkpt>
      <trkpt lat="44.67429" lon="0.94625">
        <ele>228.45</ele>
        <time>2013-09-22T08:49:54Z</time>
      </trkpt>
      <trkpt lat="44.67414" lon="0.94636">
        <ele>228.93</ele>
        <time>2013-09-22T08:50:04Z</time>
      </trkpt>
      <trkpt lat="44.67411" lon="0.94637">
        <ele>228.45</ele>
        <time>2013-09-22T08:50:12Z</time>
      </trkpt>
      <trkpt lat="44.67398" lon="0.94679">
        <ele>230.85</ele>
        <time>2013-09-22T08:50:25Z</time>
      </trkpt>
      <trkpt lat="44.67378" lon="0.94723">
        <ele>231.33</ele>
        <time>2013-09-22T08:50:37Z</time>
      </trkpt>
      <trkpt lat="44.67354" lon="0.94786">
        <ele>224.61</ele>
        <time>2013-09-22T08:50:52Z</time>
      </trkpt>
      <trkpt lat="44.67343" lon="0.94829">
        <ele>225.09</ele>
        <time>2013-09-22T08:51:04Z</time>
      </trkpt>
      <trkpt lat="44.67325" lon="0.94874">
        <ele>228.45</ele>
        <time>2013-09-22T08:51:16Z</time>
      </trkpt>
      <trkpt lat="44.67303" lon="0.94902">
        <ele>232.78</ele>
        <time>2013-09-22T08:51:26Z</time>
      </trkpt>
      <trkpt lat="44.67274" lon="0.9491">
        <ele>230.85</ele>
        <time>2013-09-22T08:51:34Z</time>
      </trkpt>
      <trkpt lat="44.67261" lon="0.94896">
        <ele>228.45</ele>
        <time>2013-09-22T08:51:39Z</time>
      </trkpt>
      <trkpt lat="44.67255" lon="0.94888">
        <ele>228.45</ele>
        <time>2013-09-22T08:51:41Z</time>
      </trkpt>
      <trkpt lat="44.67253" lon="0.94824">
        <ele>226.53</ele>
        <time>2013-09-22T08:51:53Z</time>
      </trkpt>
      <trkpt lat="44.67265" lon="0.94744">
        <ele>222.2</ele>
        <time>2013-09-22T08:52:07Z</time>
      </trkpt>
      <trkpt lat="44.67266" lon="0.94736">
        <ele>221.72</ele>
        <time>2013-09-22T08:52:08Z</time>
      </trkpt>
      <trkpt lat="44.6727" lon="0.94704">
        <ele>220.76</ele>
        <time>2013-09-22T08:52:12Z</time>
      </trkpt>
      <trkpt lat="44.67276" lon="0.94678">
        <ele>219.8</ele>
        <time>2013-09-22T08:52:15Z</time>
      </trkpt>
      <trkpt lat="44.67286" lon="0.94637">
        <ele>218.84</ele>
        <time>2013-09-22T08:52:21Z</time>
      </trkpt>
      <trkpt lat="44.67308" lon="0.94565">
        <ele>215.47</ele>
        <time>2013-09-22T08:52:30Z</time>
      </trkpt>
      <trkpt lat="44.67304" lon="0.94522">
        <ele>214.99</ele>
        <time>2013-09-22T08:52:35Z</time>
      </trkpt>
      <trkpt lat="44.67294" lon="0.9448">
        <ele>214.03</ele>
        <time>2013-09-22T08:52:39Z</time>
      </trkpt>
      <trkpt lat="44.67281" lon="0.94429">
        <ele>212.11</ele>
        <time>2013-09-22T08:52:43Z</time>
      </trkpt>
      <trkpt lat="44.6728" lon="0.94357">
        <ele>210.19</ele>
        <time>2013-09-22T08:52:54Z</time>
      </trkpt>
      <trkpt lat="44.67278" lon="0.94298">
        <ele>212.59</ele>
        <time>2013-09-22T08:53:06Z</time>
      </trkpt>
      <trkpt lat="44.67278" lon="0.94275">
        <ele>213.55</ele>
        <time>2013-09-22T08:53:11Z</time>
      </trkpt>
      <trkpt lat="44.67265" lon="0.94266">
        <ele>214.99</ele>
        <time>2013-09-22T08:53:16Z</time>
      </trkpt>
      <trkpt lat="44.67219" lon="0.94267">
        <ele>217.88</ele>
        <time>2013-09-22T08:53:30Z</time>
      </trkpt>
      <trkpt lat="44.67179" lon="0.94276">
        <ele>218.84</ele>
        <time>2013-09-22T08:53:43Z</time>
      </trkpt>
      <trkpt lat="44.6715" lon="0.94267">
        <ele>220.76</ele>
        <time>2013-09-22T08:53:55Z</time>
      </trkpt>
      <trkpt lat="44.67096" lon="0.94246">
        <ele>221.72</ele>
        <time>2013-09-22T08:54:11Z</time>
      </trkpt>
      <trkpt lat="44.67081" lon="0.94241">
        <ele>220.76</ele>
        <time>2013-09-22T08:54:23Z</time>
      </trkpt>
      <trkpt lat="44.67081" lon="0.94242">
        <ele>220.28</ele>
        <time>2013-09-22T08:54:50Z</time>
      </trkpt>
      <trkpt lat="44.6708" lon="0.94243">
        <ele>220.28</ele>
        <time>2013-09-22T08:55:08Z</time>
      </trkpt>
      <trkpt lat="44.67082" lon="0.94241">
        <ele>218.84</ele>
        <time>2013-09-22T08:55:33Z</time>
      </trkpt>
      <trkpt lat="44.67052" lon="0.94226">
        <ele>219.8</ele>
        <time>2013-09-22T08:55:47Z</time>
      </trkpt>
      <trkpt lat="44.67002" lon="0.94198">
        <ele>219.32</ele>
        <time>2013-09-22T08:56:02Z</time>
      </trkpt>
      <trkpt lat="44.66969" lon="0.94157">
        <ele>216.91</ele>
        <time>2013-09-22T08:56:15Z</time>
      </trkpt>
      <trkpt lat="44.6696" lon="0.94141">
        <ele>216.43</ele>
        <time>2013-09-22T08:56:20Z</time>
      </trkpt>
      <trkpt lat="44.66952" lon="0.94137">
        <ele>217.4</ele>
        <time>2013-09-22T08:56:25Z</time>
      </trkpt>
      <trkpt lat="44.66962" lon="0.94105">
        <ele>218.36</ele>
        <time>2013-09-22T08:56:35Z</time>
      </trkpt>
      <trkpt lat="44.66974" lon="0.9407">
        <ele>217.4</ele>
        <time>2013-09-22T08:56:43Z</time>
      </trkpt>
      <trkpt lat="44.67008" lon="0.93988">
        <ele>217.4</ele>
        <time>2013-09-22T08:56:59Z</time>
      </trkpt>
      <trkpt lat="44.67021" lon="0.93958">
        <ele>217.4</ele>
        <time>2013-09-22T08:57:05Z</time>
      </trkpt>
      <trkpt lat="44.67009" lon="0.93934">
        <ele>217.88</ele>
        <time>2013-09-22T08:57:10Z</time>
      </trkpt>
      <trkpt lat="44.6698" lon="0.93906">
        <ele>216.91</ele>
        <time>2013-09-22T08:57:16Z</time>
      </trkpt>
      <trkpt lat="44.66955" lon="0.93866">
        <ele>218.84</ele>
        <time>2013-09-22T08:57:25Z</time>
      </trkpt>
      <trkpt lat="44.66952" lon="0.93862">
        <ele>218.84</ele>
        <time>2013-09-22T08:57:26Z</time>
      </trkpt>
      <trkpt lat="44.66941" lon="0.93846">
        <ele>218.36</ele>
        <time>2013-09-22T08:57:30Z</time>
      </trkpt>
      <trkpt lat="44.66936" lon="0.93818">
        <ele>216.91</ele>
        <time>2013-09-22T08:57:35Z</time>
      </trkpt>
      <trkpt lat="44.66934" lon="0.93768">
        <ele>214.51</ele>
        <time>2013-09-22T08:57:42Z</time>
      </trkpt>
      <trkpt lat="44.66936" lon="0.93742">
        <ele>213.55</ele>
        <time>2013-09-22T08:57:45Z</time>
      </trkpt>
      <trkpt lat="44.66934" lon="0.93714">
        <ele>212.11</ele>
        <time>2013-09-22T08:57:48Z</time>
      </trkpt>
      <trkpt lat="44.6692" lon="0.93688">
        <ele>210.67</ele>
        <time>2013-09-22T08:57:52Z</time>
      </trkpt>
      <trkpt lat="44.66895" lon="0.93678">
        <ele>210.19</ele>
        <time>2013-09-22T08:57:57Z</time>
      </trkpt>
      <trkpt lat="44.66883" lon="0.93677">
        <ele>210.67</ele>
        <time>2013-09-22T08:57:59Z</time>
      </trkpt>
      <trkpt lat="44.66872" lon="0.93679">
        <ele>211.15</ele>
        <time>2013-09-22T08:58:01Z</time>
      </trkpt>
      <trkpt lat="44.66851" lon="0.93674">
        <ele>214.03</ele>
        <time>2013-09-22T08:58:06Z</time>
      </trkpt>
      <trkpt lat="44.66837" lon="0.93664">
        <ele>214.99</ele>
        <time>2013-09-22T08:58:12Z</time>
      </trkpt>
      <trkpt lat="44.66829" lon="0.93658">
        <ele>213.07</ele>
        <time>2013-09-22T08:58:24Z</time>
      </trkpt>
      <trkpt lat="44.66813" lon="0.93647">
        <ele>211.63</ele>
        <time>2013-09-22T08:58:36Z</time>
      </trkpt>
      <trkpt lat="44.66805" lon="0.93644">
        <ele>210.19</ele>
        <time>2013-09-22T08:58:38Z</time>
      </trkpt>
      <trkpt lat="44.66777" lon="0.93653">
        <ele>206.82</ele>
        <time>2013-09-22T08:58:43Z</time>
      </trkpt>
      <trkpt lat="44.66747" lon="0.93671">
        <ele>202.98</ele>
        <time>2013-09-22T08:58:47Z</time>
      </trkpt>
      <trkpt lat="44.66733" lon="0.93683">
        <ele>202.01</ele>
        <time>2013-09-22T08:58:49Z</time>
      </trkpt>
      <trkpt lat="44.6672" lon="0.93697">
        <ele>200.57</ele>
        <time>2013-09-22T08:58:51Z</time>
      </trkpt>
      <trkpt lat="44.66697" lon="0.9373">
        <ele>197.21</ele>
        <time>2013-09-22T08:58:55Z</time>
      </trkpt>
      <trkpt lat="44.6666" lon="0.93736">
        <ele>192.4</ele>
        <time>2013-09-22T08:59:02Z</time>
      </trkpt>
      <trkpt lat="44.66654" lon="0.93698">
        <ele>189.04</ele>
        <time>2013-09-22T08:59:09Z</time>
      </trkpt>
      <trkpt lat="44.66647" lon="0.937">
        <ele>189.52</ele>
        <time>2013-09-22T08:59:11Z</time>
      </trkpt>
      <trkpt lat="44.66613" lon="0.93736">
        <ele>190</ele>
        <time>2013-09-22T08:59:20Z</time>
      </trkpt>
      <trkpt lat="44.666" lon="0.93759">
        <ele>190.48</ele>
        <time>2013-09-22T08:59:25Z</time>
      </trkpt>
      <trkpt lat="44.66593" lon="0.93774">
        <ele>190.96</ele>
        <time>2013-09-22T08:59:28Z</time>
      </trkpt>
      <trkpt lat="44.66564" lon="0.93835">
        <ele>192.4</ele>
        <time>2013-09-22T08:59:41Z</time>
      </trkpt>
      <trkpt lat="44.66545" lon="0.93888">
        <ele>197.69</ele>
        <time>2013-09-22T08:59:52Z</time>
      </trkpt>
      <trkpt lat="44.66528" lon="0.93929">
        <ele>204.42</ele>
        <time>2013-09-22T09:00:02Z</time>
      </trkpt>
      <trkpt lat="44.66506" lon="0.93979">
        <ele>211.63</ele>
        <time>2013-09-22T09:00:12Z</time>
      </trkpt>
      <trkpt lat="44.66488" lon="0.93999">
        <ele>214.99</ele>
        <time>2013-09-22T09:00:18Z</time>
      </trkpt>
      <trkpt lat="44.66465" lon="0.94031">
        <ele>217.88</ele>
        <time>2013-09-22T09:00:29Z</time>
      </trkpt>
      <trkpt lat="44.66449" lon="0.94048">
        <ele>217.88</ele>
        <time>2013-09-22T09:00:34Z</time>
      </trkpt>
      <trkpt lat="44.66425" lon="0.94076">
        <ele>214.03</ele>
        <time>2013-09-22T09:00:41Z</time>
      </trkpt>
      <trkpt lat="44.66412" lon="0.94098">
        <ele>213.55</ele>
        <time>2013-09-22T09:00:45Z</time>
      </trkpt>
      <trkpt lat="44.66377" lon="0.9414">
        <ele>213.07</ele>
        <time>2013-09-22T09:00:56Z</time>
      </trkpt>
      <trkpt lat="44.6634" lon="0.94156">
        <ele>208.74</ele>
        <time>2013-09-22T09:01:02Z</time>
      </trkpt>
      <trkpt lat="44.66319" lon="0.9417">
        <ele>207.78</ele>
        <time>2013-09-22T09:01:06Z</time>
      </trkpt>
      <trkpt lat="44.66295" lon="0.94185">
        <ele>207.3</ele>
        <time>2013-09-22T09:01:13Z</time>
      </trkpt>
      <trkpt lat="44.66262" lon="0.94218">
        <ele>209.22</ele>
        <time>2013-09-22T09:01:24Z</time>
      </trkpt>
      <trkpt lat="44.66256" lon="0.94222">
        <ele>209.7</ele>
        <time>2013-09-22T09:01:26Z</time>
      </trkpt>
      <trkpt lat="44.66249" lon="0.94218">
        <ele>210.19</ele>
        <time>2013-09-22T09:01:30Z</time>
      </trkpt>
      <trkpt lat="44.66254" lon="0.94206">
        <ele>210.67</ele>
        <time>2013-09-22T09:01:39Z</time>
      </trkpt>
      <trkpt lat="44.66262" lon="0.94186">
        <ele>211.15</ele>
        <time>2013-09-22T09:01:49Z</time>
      </trkpt>
      <trkpt lat="44.66273" lon="0.94164">
        <ele>211.15</ele>
        <time>2013-09-22T09:01:59Z</time>
      </trkpt>
      <trkpt lat="44.6628" lon="0.94155">
        <ele>210.19</ele>
        <time>2013-09-22T09:02:03Z</time>
      </trkpt>
      <trkpt lat="44.66278" lon="0.94142">
        <ele>210.19</ele>
        <time>2013-09-22T09:02:07Z</time>
      </trkpt>
      <trkpt lat="44.66261" lon="0.94097">
        <ele>209.22</ele>
        <time>2013-09-22T09:02:20Z</time>
      </trkpt>
      <trkpt lat="44.66248" lon="0.94075">
        <ele>209.22</ele>
        <time>2013-09-22T09:02:29Z</time>
      </trkpt>
      <trkpt lat="44.66221" lon="0.94031">
        <ele>205.86</ele>
        <time>2013-09-22T09:02:43Z</time>
      </trkpt>
      <trkpt lat="44.662" lon="0.93991">
        <ele>206.34</ele>
        <time>2013-09-22T09:02:55Z</time>
      </trkpt>
      <trkpt lat="44.66172" lon="0.93957">
        <ele>210.19</ele>
        <time>2013-09-22T09:03:08Z</time>
      </trkpt>
      <trkpt lat="44.66135" lon="0.93937">
        <ele>208.74</ele>
        <time>2013-09-22T09:03:22Z</time>
      </trkpt>
      <trkpt lat="44.66116" lon="0.93924">
        <ele>206.82</ele>
        <time>2013-09-22T09:03:34Z</time>
      </trkpt>
      <trkpt lat="44.66077" lon="0.93918">
        <ele>208.74</ele>
        <time>2013-09-22T09:03:45Z</time>
      </trkpt>
      <trkpt lat="44.66038" lon="0.93921">
        <ele>215.47</ele>
        <time>2013-09-22T09:03:56Z</time>
      </trkpt>
      <trkpt lat="44.66003" lon="0.93916">
        <ele>224.61</ele>
        <time>2013-09-22T09:04:03Z</time>
      </trkpt>
      <trkpt lat="44.65975" lon="0.93934">
        <ele>231.33</ele>
        <time>2013-09-22T09:04:12Z</time>
      </trkpt>
      <trkpt lat="44.6595" lon="0.93952">
        <ele>238.06</ele>
        <time>2013-09-22T09:04:23Z</time>
      </trkpt>
      <trkpt lat="44.65925" lon="0.9399">
        <ele>241.43</ele>
        <time>2013-09-22T09:04:34Z</time>
      </trkpt>
      <trkpt lat="44.65914" lon="0.93998">
        <ele>241.43</ele>
        <time>2013-09-22T09:04:39Z</time>
      </trkpt>
      <trkpt lat="44.65895" lon="0.94">
        <ele>243.35</ele>
        <time>2013-09-22T09:04:46Z</time>
      </trkpt>
      <trkpt lat="44.65857" lon="0.93992">
        <ele>244.31</ele>
        <time>2013-09-22T09:04:56Z</time>
      </trkpt>
      <trkpt lat="44.65826" lon="0.93971">
        <ele>242.87</ele>
        <time>2013-09-22T09:05:06Z</time>
      </trkpt>
      <trkpt lat="44.65815" lon="0.93964">
        <ele>241.43</ele>
        <time>2013-09-22T09:05:09Z</time>
      </trkpt>
      <trkpt lat="44.65811" lon="0.93959">
        <ele>240.47</ele>
        <time>2013-09-22T09:05:11Z</time>
      </trkpt>
      <trkpt lat="44.658" lon="0.93954">
        <ele>238.54</ele>
        <time>2013-09-22T09:05:24Z</time>
      </trkpt>
      <trkpt lat="44.65797" lon="0.93954">
        <ele>237.58</ele>
        <time>2013-09-22T09:05:40Z</time>
      </trkpt>
      <trkpt lat="44.65788" lon="0.9395">
        <ele>237.58</ele>
        <time>2013-09-22T09:05:55Z</time>
      </trkpt>
      <trkpt lat="44.65787" lon="0.93949">
        <ele>237.1</ele>
        <time>2013-09-22T09:05:56Z</time>
      </trkpt>
      <trkpt lat="44.65783" lon="0.93943">
        <ele>237.1</ele>
        <time>2013-09-22T09:06:00Z</time>
      </trkpt>
      <trkpt lat="44.65777" lon="0.93905">
        <ele>235.66</ele>
        <time>2013-09-22T09:06:11Z</time>
      </trkpt>
      <trkpt lat="44.65784" lon="0.93865">
        <ele>235.18</ele>
        <time>2013-09-22T09:06:22Z</time>
      </trkpt>
      <trkpt lat="44.65799" lon="0.93826">
        <ele>237.1</ele>
        <time>2013-09-22T09:06:34Z</time>
      </trkpt>
      <trkpt lat="44.658" lon="0.9382">
        <ele>234.7</ele>
        <time>2013-09-22T09:06:46Z</time>
      </trkpt>
      <trkpt lat="44.658" lon="0.93819">
        <ele>235.66</ele>
        <time>2013-09-22T09:07:07Z</time>
      </trkpt>
      <trkpt lat="44.658" lon="0.93819">
        <ele>236.14</ele>
        <time>2013-09-22T09:07:15Z</time>
      </trkpt>
      <trkpt lat="44.6578" lon="0.9379">
        <ele>236.14</ele>
        <time>2013-09-22T09:07:27Z</time>
      </trkpt>
      <trkpt lat="44.65746" lon="0.93747">
        <ele>238.54</ele>
        <time>2013-09-22T09:07:41Z</time>
      </trkpt>
      <trkpt lat="44.65712" lon="0.93721">
        <ele>238.54</ele>
        <time>2013-09-22T09:07:52Z</time>
      </trkpt>
      <trkpt lat="44.65668" lon="0.93679">
        <ele>243.35</ele>
        <time>2013-09-22T09:08:08Z</time>
      </trkpt>
      <trkpt lat="44.65648" lon="0.9366">
        <ele>242.87</ele>
        <time>2013-09-22T09:08:13Z</time>
      </trkpt>
      <trkpt lat="44.65637" lon="0.93641">
        <ele>242.87</ele>
        <time>2013-09-22T09:08:17Z</time>
      </trkpt>
      <trkpt lat="44.65613" lon="0.93582">
        <ele>240.95</ele>
        <time>2013-09-22T09:08:28Z</time>
      </trkpt>
      <trkpt lat="44.65568" lon="0.93501">
        <ele>235.66</ele>
        <time>2013-09-22T09:08:40Z</time>
      </trkpt>
      <trkpt lat="44.6552" lon="0.93392">
        <ele>235.18</ele>
        <time>2013-09-22T09:08:54Z</time>
      </trkpt>
      <trkpt lat="44.65517" lon="0.93385">
        <ele>235.18</ele>
        <time>2013-09-22T09:08:55Z</time>
      </trkpt>
      <trkpt lat="44.65508" lon="0.93355">
        <ele>234.7</ele>
        <time>2013-09-22T09:08:59Z</time>
      </trkpt>
      <trkpt lat="44.65494" lon="0.93264">
        <ele>236.14</ele>
        <time>2013-09-22T09:09:11Z</time>
      </trkpt>
      <trkpt lat="44.65484" lon="0.93236">
        <ele>236.62</ele>
        <time>2013-09-22T09:09:15Z</time>
      </trkpt>
      <trkpt lat="44.65454" lon="0.93207">
        <ele>238.06</ele>
        <time>2013-09-22T09:09:25Z</time>
      </trkpt>
      <trkpt lat="44.65442" lon="0.93204">
        <ele>243.35</ele>
        <time>2013-09-22T09:09:44Z</time>
      </trkpt>
      <trkpt lat="44.65441" lon="0.932">
        <ele>246.72</ele>
        <time>2013-09-22T09:09:52Z</time>
      </trkpt>
      <trkpt lat="44.65437" lon="0.93165">
        <ele>245.27</ele>
        <time>2013-09-22T09:10:04Z</time>
      </trkpt>
      <trkpt lat="44.65446" lon="0.93116">
        <ele>237.1</ele>
        <time>2013-09-22T09:10:16Z</time>
      </trkpt>
      <trkpt lat="44.65463" lon="0.93083">
        <ele>232.78</ele>
        <time>2013-09-22T09:10:23Z</time>
      </trkpt>
      <trkpt lat="44.65477" lon="0.93051">
        <ele>229.89</ele>
        <time>2013-09-22T09:10:29Z</time>
      </trkpt>
      <trkpt lat="44.65516" lon="0.92949">
        <ele>217.4</ele>
        <time>2013-09-22T09:10:45Z</time>
      </trkpt>
      <trkpt lat="44.65537" lon="0.92891">
        <ele>210.67</ele>
        <time>2013-09-22T09:10:53Z</time>
      </trkpt>
      <trkpt lat="44.65563" lon="0.92776">
        <ele>206.82</ele>
        <time>2013-09-22T09:11:05Z</time>
      </trkpt>
      <trkpt lat="44.65582" lon="0.92637">
        <ele>202.01</ele>
        <time>2013-09-22T09:11:19Z</time>
      </trkpt>
      <trkpt lat="44.65586" lon="0.9262">
        <ele>202.98</ele>
        <time>2013-09-22T09:11:21Z</time>
      </trkpt>
      <trkpt lat="44.6558" lon="0.9259">
        <ele>209.22</ele>
        <time>2013-09-22T09:11:26Z</time>
      </trkpt>
      <trkpt lat="44.65572" lon="0.92558">
        <ele>213.07</ele>
        <time>2013-09-22T09:11:34Z</time>
      </trkpt>
      <trkpt lat="44.65583" lon="0.92548">
        <ele>214.51</ele>
        <time>2013-09-22T09:11:37Z</time>
      </trkpt>
      <trkpt lat="44.65622" lon="0.92517">
        <ele>216.91</ele>
        <time>2013-09-22T09:11:48Z</time>
      </trkpt>
      <trkpt lat="44.6563" lon="0.92516">
        <ele>227.49</ele>
        <time>2013-09-22T09:12:10Z</time>
      </trkpt>
      <trkpt lat="44.65639" lon="0.92495">
        <ele>226.53</ele>
        <time>2013-09-22T09:12:26Z</time>
      </trkpt>
      <trkpt lat="44.65649" lon="0.92461">
        <ele>228.93</ele>
        <time>2013-09-22T09:12:38Z</time>
      </trkpt>
      <trkpt lat="44.65658" lon="0.92425">
        <ele>228.93</ele>
        <time>2013-09-22T09:12:50Z</time>
      </trkpt>
      <trkpt lat="44.65677" lon="0.92373">
        <ele>228.45</ele>
        <time>2013-09-22T09:13:04Z</time>
      </trkpt>
      <trkpt lat="44.65699" lon="0.92311">
        <ele>229.89</ele>
        <time>2013-09-22T09:13:20Z</time>
      </trkpt>
      <trkpt lat="44.65715" lon="0.92259">
        <ele>232.78</ele>
        <time>2013-09-22T09:13:33Z</time>
      </trkpt>
      <trkpt lat="44.65729" lon="0.92201">
        <ele>231.81</ele>
        <time>2013-09-22T09:13:45Z</time>
      </trkpt>
      <trkpt lat="44.65725" lon="0.92116">
        <ele>227.49</ele>
        <time>2013-09-22T09:13:59Z</time>
      </trkpt>
      <trkpt lat="44.65737" lon="0.92008">
        <ele>227.49</ele>
        <time>2013-09-22T09:14:17Z</time>
      </trkpt>
      <trkpt lat="44.65753" lon="0.91931">
        <ele>225.57</ele>
        <time>2013-09-22T09:14:32Z</time>
      </trkpt>
      <trkpt lat="44.65768" lon="0.91883">
        <ele>223.64</ele>
        <time>2013-09-22T09:14:44Z</time>
      </trkpt>
      <trkpt lat="44.65783" lon="0.9183">
        <ele>223.16</ele>
        <time>2013-09-22T09:14:58Z</time>
      </trkpt>
      <trkpt lat="44.65786" lon="0.91818">
        <ele>223.16</ele>
        <time>2013-09-22T09:15:02Z</time>
      </trkpt>
      <trkpt lat="44.6581" lon="0.91775">
        <ele>225.09</ele>
        <time>2013-09-22T09:15:17Z</time>
      </trkpt>
      <trkpt lat="44.65823" lon="0.91752">
        <ele>226.05</ele>
        <time>2013-09-22T09:15:26Z</time>
      </trkpt>
      <trkpt lat="44.65837" lon="0.91759">
        <ele>226.05</ele>
        <time>2013-09-22T09:15:31Z</time>
      </trkpt>
      <trkpt lat="44.65874" lon="0.91802">
        <ele>225.09</ele>
        <time>2013-09-22T09:15:44Z</time>
      </trkpt>
      <trkpt lat="44.65902" lon="0.91835">
        <ele>224.12</ele>
        <time>2013-09-22T09:15:51Z</time>
      </trkpt>
      <trkpt lat="44.65958" lon="0.91911">
        <ele>221.72</ele>
        <time>2013-09-22T09:16:07Z</time>
      </trkpt>
      <trkpt lat="44.65998" lon="0.91958">
        <ele>220.28</ele>
        <time>2013-09-22T09:16:16Z</time>
      </trkpt>
      <trkpt lat="44.66007" lon="0.91967">
        <ele>219.8</ele>
        <time>2013-09-22T09:16:18Z</time>
      </trkpt>
      <trkpt lat="44.66064" lon="0.91986">
        <ele>221.24</ele>
        <time>2013-09-22T09:16:30Z</time>
      </trkpt>
      <trkpt lat="44.66098" lon="0.91975">
        <ele>222.68</ele>
        <time>2013-09-22T09:16:38Z</time>
      </trkpt>
      <trkpt lat="44.66123" lon="0.91972">
        <ele>222.2</ele>
        <time>2013-09-22T09:16:43Z</time>
      </trkpt>
      <trkpt lat="44.66156" lon="0.91969">
        <ele>217.88</ele>
        <time>2013-09-22T09:16:48Z</time>
      </trkpt>
      <trkpt lat="44.66251" lon="0.91951">
        <ele>209.22</ele>
        <time>2013-09-22T09:16:59Z</time>
      </trkpt>
      <trkpt lat="44.66365" lon="0.91964">
        <ele>201.05</ele>
        <time>2013-09-22T09:17:10Z</time>
      </trkpt>
      <trkpt lat="44.66409" lon="0.91969">
        <ele>197.69</ele>
        <time>2013-09-22T09:17:15Z</time>
      </trkpt>
      <trkpt lat="44.66426" lon="0.9197">
        <ele>196.25</ele>
        <time>2013-09-22T09:17:17Z</time>
      </trkpt>
      <trkpt lat="44.66524" lon="0.91946">
        <ele>190.48</ele>
        <time>2013-09-22T09:17:29Z</time>
      </trkpt>
      <trkpt lat="44.66568" lon="0.91941">
        <ele>189.52</ele>
        <time>2013-09-22T09:17:36Z</time>
      </trkpt>
      <trkpt lat="44.66601" lon="0.91947">
        <ele>194.32</ele>
        <time>2013-09-22T09:17:46Z</time>
      </trkpt>
      <trkpt lat="44.66634" lon="0.91973">
        <ele>201.05</ele>
        <time>2013-09-22T09:17:59Z</time>
      </trkpt>
      <trkpt lat="44.66673" lon="0.91998">
        <ele>206.34</ele>
        <time>2013-09-22T09:18:12Z</time>
      </trkpt>
      <trkpt lat="44.66708" lon="0.91976">
        <ele>212.11</ele>
        <time>2013-09-22T09:18:23Z</time>
      </trkpt>
      <trkpt lat="44.66754" lon="0.91968">
        <ele>215.95</ele>
        <time>2013-09-22T09:18:33Z</time>
      </trkpt>
      <trkpt lat="44.66811" lon="0.91968">
        <ele>208.26</ele>
        <time>2013-09-22T09:18:42Z</time>
      </trkpt>
      <trkpt lat="44.66833" lon="0.91962">
        <ele>205.86</ele>
        <time>2013-09-22T09:18:46Z</time>
      </trkpt>
      <trkpt lat="44.66857" lon="0.91956">
        <ele>203.94</ele>
        <time>2013-09-22T09:18:50Z</time>
      </trkpt>
      <trkpt lat="44.6692" lon="0.91937">
        <ele>200.57</ele>
        <time>2013-09-22T09:19:00Z</time>
      </trkpt>
      <trkpt lat="44.6693" lon="0.91932">
        <ele>200.57</ele>
        <time>2013-09-22T09:19:02Z</time>
      </trkpt>
      <trkpt lat="44.66948" lon="0.91917">
        <ele>199.61</ele>
        <time>2013-09-22T09:19:11Z</time>
      </trkpt>
      <trkpt lat="44.66949" lon="0.91917">
        <ele>199.13</ele>
        <time>2013-09-22T09:19:30Z</time>
      </trkpt>
      <trkpt lat="44.66948" lon="0.91916">
        <ele>200.09</ele>
        <time>2013-09-22T09:19:54Z</time>
      </trkpt>
      <trkpt lat="44.66957" lon="0.91898">
        <ele>200.57</ele>
        <time>2013-09-22T09:20:08Z</time>
      </trkpt>
      <trkpt lat="44.66972" lon="0.91864">
        <ele>202.49</ele>
        <time>2013-09-22T09:20:16Z</time>
      </trkpt>
      <trkpt lat="44.67007" lon="0.91788">
        <ele>205.38</ele>
        <time>2013-09-22T09:20:33Z</time>
      </trkpt>
      <trkpt lat="44.6704" lon="0.91734">
        <ele>205.86</ele>
        <time>2013-09-22T09:20:44Z</time>
      </trkpt>
      <trkpt lat="44.67098" lon="0.91648">
        <ele>205.38</ele>
        <time>2013-09-22T09:21:01Z</time>
      </trkpt>
      <trkpt lat="44.67101" lon="0.91643">
        <ele>205.38</ele>
        <time>2013-09-22T09:21:02Z</time>
      </trkpt>
      <trkpt lat="44.67112" lon="0.91626">
        <ele>205.38</ele>
        <time>2013-09-22T09:21:06Z</time>
      </trkpt>
      <trkpt lat="44.67129" lon="0.91591">
        <ele>204.9</ele>
        <time>2013-09-22T09:21:13Z</time>
      </trkpt>
      <trkpt lat="44.67141" lon="0.91539">
        <ele>203.94</ele>
        <time>2013-09-22T09:21:23Z</time>
      </trkpt>
      <trkpt lat="44.67135" lon="0.91497">
        <ele>202.98</ele>
        <time>2013-09-22T09:21:30Z</time>
      </trkpt>
      <trkpt lat="44.67133" lon="0.91469">
        <ele>202.49</ele>
        <time>2013-09-22T09:21:34Z</time>
      </trkpt>
      <trkpt lat="44.67138" lon="0.91369">
        <ele>198.17</ele>
        <time>2013-09-22T09:21:44Z</time>
      </trkpt>
      <trkpt lat="44.67163" lon="0.91316">
        <ele>194.8</ele>
        <time>2013-09-22T09:21:49Z</time>
      </trkpt>
      <trkpt lat="44.67269" lon="0.91192">
        <ele>186.15</ele>
        <time>2013-09-22T09:22:04Z</time>
      </trkpt>
      <trkpt lat="44.67281" lon="0.91177">
        <ele>184.71</ele>
        <time>2013-09-22T09:22:06Z</time>
      </trkpt>
      <trkpt lat="44.67365" lon="0.9114">
        <ele>182.31</ele>
        <time>2013-09-22T09:22:16Z</time>
      </trkpt>
      <trkpt lat="44.67375" lon="0.91135">
        <ele>181.83</ele>
        <time>2013-09-22T09:22:17Z</time>
      </trkpt>
      <trkpt lat="44.67449" lon="0.91087">
        <ele>179.9</ele>
        <time>2013-09-22T09:22:25Z</time>
      </trkpt>
      <trkpt lat="44.67468" lon="0.91065">
        <ele>178.94</ele>
        <time>2013-09-22T09:22:28Z</time>
      </trkpt>
      <trkpt lat="44.67476" lon="0.91052">
        <ele>178.46</ele>
        <time>2013-09-22T09:22:30Z</time>
      </trkpt>
      <trkpt lat="44.67477" lon="0.91036">
        <ele>178.46</ele>
        <time>2013-09-22T09:22:34Z</time>
      </trkpt>
      <trkpt lat="44.67462" lon="0.91032">
        <ele>178.46</ele>
        <time>2013-09-22T09:22:39Z</time>
      </trkpt>
      <trkpt lat="44.67405" lon="0.91054">
        <ele>178.94</ele>
        <time>2013-09-22T09:22:54Z</time>
      </trkpt>
      <trkpt lat="44.6735" lon="0.91074">
        <ele>179.9</ele>
        <time>2013-09-22T09:23:09Z</time>
      </trkpt>
      <trkpt lat="44.67304" lon="0.91088">
        <ele>180.87</ele>
        <time>2013-09-22T09:23:22Z</time>
      </trkpt>
      <trkpt lat="44.67244" lon="0.91103">
        <ele>182.31</ele>
        <time>2013-09-22T09:23:38Z</time>
      </trkpt>
      <trkpt lat="44.67197" lon="0.9113">
        <ele>182.79</ele>
        <time>2013-09-22T09:23:52Z</time>
      </trkpt>
      <trkpt lat="44.67143" lon="0.91141">
        <ele>183.75</ele>
        <time>2013-09-22T09:24:06Z</time>
      </trkpt>
      <trkpt lat="44.67135" lon="0.91142">
        <ele>183.75</ele>
        <time>2013-09-22T09:24:08Z</time>
      </trkpt>
      <trkpt lat="44.67079" lon="0.9114">
        <ele>184.23</ele>
        <time>2013-09-22T09:24:21Z</time>
      </trkpt>
      <trkpt lat="44.67019" lon="0.91151">
        <ele>185.19</ele>
        <time>2013-09-22T09:24:36Z</time>
      </trkpt>
      <trkpt lat="44.66961" lon="0.91156">
        <ele>188.56</ele>
        <time>2013-09-22T09:24:51Z</time>
      </trkpt>
      <trkpt lat="44.66906" lon="0.91129">
        <ele>191.44</ele>
        <time>2013-09-22T09:25:07Z</time>
      </trkpt>
      <trkpt lat="44.66847" lon="0.91099">
        <ele>194.8</ele>
        <time>2013-09-22T09:25:24Z</time>
      </trkpt>
      <trkpt lat="44.66806" lon="0.91065">
        <ele>196.25</ele>
        <time>2013-09-22T09:25:37Z</time>
      </trkpt>
      <trkpt lat="44.66776" lon="0.90995">
        <ele>200.57</ele>
        <time>2013-09-22T09:25:52Z</time>
      </trkpt>
      <trkpt lat="44.66745" lon="0.90963">
        <ele>202.01</ele>
        <time>2013-09-22T09:26:02Z</time>
      </trkpt>
      <trkpt lat="44.66693" lon="0.90949">
        <ele>202.01</ele>
        <time>2013-09-22T09:26:16Z</time>
      </trkpt>
      <trkpt lat="44.66671" lon="0.90944">
        <ele>201.05</ele>
        <time>2013-09-22T09:26:22Z</time>
      </trkpt>
      <trkpt lat="44.6663" lon="0.90933">
        <ele>197.69</ele>
        <time>2013-09-22T09:26:33Z</time>
      </trkpt>
      <trkpt lat="44.66568" lon="0.90917">
        <ele>197.21</ele>
        <time>2013-09-22T09:26:48Z</time>
      </trkpt>
      <trkpt lat="44.66509" lon="0.90903">
        <ele>196.25</ele>
        <time>2013-09-22T09:27:03Z</time>
      </trkpt>
      <trkpt lat="44.66454" lon="0.90892">
        <ele>197.21</ele>
        <time>2013-09-22T09:27:16Z</time>
      </trkpt>
      <trkpt lat="44.66424" lon="0.9088">
        <ele>198.65</ele>
        <time>2013-09-22T09:27:26Z</time>
      </trkpt>
      <trkpt lat="44.66419" lon="0.90876">
        <ele>198.65</ele>
        <time>2013-09-22T09:27:29Z</time>
      </trkpt>
      <trkpt lat="44.66413" lon="0.90878">
        <ele>199.13</ele>
        <time>2013-09-22T09:27:39Z</time>
      </trkpt>
      <trkpt lat="44.6641" lon="0.90877">
        <ele>200.09</ele>
        <time>2013-09-22T09:27:57Z</time>
      </trkpt>
      <trkpt lat="44.66411" lon="0.90874">
        <ele>202.01</ele>
        <time>2013-09-22T09:28:21Z</time>
      </trkpt>
      <trkpt lat="44.66392" lon="0.9088">
        <ele>202.98</ele>
        <time>2013-09-22T09:28:31Z</time>
      </trkpt>
      <trkpt lat="44.66333" lon="0.90894">
        <ele>203.46</ele>
        <time>2013-09-22T09:28:46Z</time>
      </trkpt>
      <trkpt lat="44.66271" lon="0.90916">
        <ele>211.15</ele>
        <time>2013-09-22T09:29:02Z</time>
      </trkpt>
      <trkpt lat="44.66208" lon="0.90948">
        <ele>209.7</ele>
        <time>2013-09-22T09:29:16Z</time>
      </trkpt>
      <trkpt lat="44.66203" lon="0.9095">
        <ele>209.7</ele>
        <time>2013-09-22T09:29:17Z</time>
      </trkpt>
      <trkpt lat="44.66163" lon="0.90974">
        <ele>210.67</ele>
        <time>2013-09-22T09:29:25Z</time>
      </trkpt>
      <trkpt lat="44.66154" lon="0.90981">
        <ele>211.15</ele>
        <time>2013-09-22T09:29:27Z</time>
      </trkpt>
      <trkpt lat="44.66102" lon="0.91024">
        <ele>214.51</ele>
        <time>2013-09-22T09:29:40Z</time>
      </trkpt>
      <trkpt lat="44.66072" lon="0.91055">
        <ele>217.88</ele>
        <time>2013-09-22T09:29:48Z</time>
      </trkpt>
      <trkpt lat="44.66061" lon="0.91064">
        <ele>218.84</ele>
        <time>2013-09-22T09:29:51Z</time>
      </trkpt>
      <trkpt lat="44.66029" lon="0.91092">
        <ele>222.2</ele>
        <time>2013-09-22T09:30:00Z</time>
      </trkpt>
      <trkpt lat="44.65956" lon="0.91141">
        <ele>227.49</ele>
        <time>2013-09-22T09:30:18Z</time>
      </trkpt>
      <trkpt lat="44.65883" lon="0.91196">
        <ele>221.72</ele>
        <time>2013-09-22T09:30:34Z</time>
      </trkpt>
      <trkpt lat="44.65818" lon="0.91252">
        <ele>225.09</ele>
        <time>2013-09-22T09:30:48Z</time>
      </trkpt>
      <trkpt lat="44.65796" lon="0.91266">
        <ele>226.53</ele>
        <time>2013-09-22T09:30:52Z</time>
      </trkpt>
      <trkpt lat="44.65782" lon="0.91271">
        <ele>227.01</ele>
        <time>2013-09-22T09:30:54Z</time>
      </trkpt>
      <trkpt lat="44.65736" lon="0.91265">
        <ele>228.93</ele>
        <time>2013-09-22T09:31:00Z</time>
      </trkpt>
      <trkpt lat="44.65609" lon="0.91215">
        <ele>229.89</ele>
        <time>2013-09-22T09:31:14Z</time>
      </trkpt>
      <trkpt lat="44.65507" lon="0.91173">
        <ele>229.41</ele>
        <time>2013-09-22T09:31:25Z</time>
      </trkpt>
      <trkpt lat="44.65434" lon="0.91157">
        <ele>227.01</ele>
        <time>2013-09-22T09:31:32Z</time>
      </trkpt>
      <trkpt lat="44.6539" lon="0.91128">
        <ele>226.05</ele>
        <time>2013-09-22T09:31:37Z</time>
      </trkpt>
      <trkpt lat="44.65322" lon="0.91059">
        <ele>222.68</ele>
        <time>2013-09-22T09:31:48Z</time>
      </trkpt>
      <trkpt lat="44.6527" lon="0.91062">
        <ele>221.72</ele>
        <time>2013-09-22T09:31:57Z</time>
      </trkpt>
      <trkpt lat="44.65247" lon="0.91065">
        <ele>221.72</ele>
        <time>2013-09-22T09:32:01Z</time>
      </trkpt>
      <trkpt lat="44.65229" lon="0.91069">
        <ele>221.72</ele>
        <time>2013-09-22T09:32:04Z</time>
      </trkpt>
      <trkpt lat="44.65206" lon="0.91068">
        <ele>221.24</ele>
        <time>2013-09-22T09:32:08Z</time>
      </trkpt>
      <trkpt lat="44.6513" lon="0.91043">
        <ele>219.8</ele>
        <time>2013-09-22T09:32:23Z</time>
      </trkpt>
      <trkpt lat="44.65084" lon="0.91013">
        <ele>217.88</ele>
        <time>2013-09-22T09:32:36Z</time>
      </trkpt>
      <trkpt lat="44.65045" lon="0.91">
        <ele>218.84</ele>
        <time>2013-09-22T09:32:50Z</time>
      </trkpt>
      <trkpt lat="44.65012" lon="0.91006">
        <ele>218.36</ele>
        <time>2013-09-22T09:33:02Z</time>
      </trkpt>
      <trkpt lat="44.64977" lon="0.91009">
        <ele>217.4</ele>
        <time>2013-09-22T09:33:15Z</time>
      </trkpt>
      <trkpt lat="44.64961" lon="0.91003">
        <ele>217.4</ele>
        <time>2013-09-22T09:33:24Z</time>
      </trkpt>
      <trkpt lat="44.64957" lon="0.91006">
        <ele>217.4</ele>
        <time>2013-09-22T09:33:39Z</time>
      </trkpt>
      <trkpt lat="44.64955" lon="0.91006">
        <ele>218.84</ele>
        <time>2013-09-22T09:33:53Z</time>
      </trkpt>
      <trkpt lat="44.64952" lon="0.91004">
        <ele>221.24</ele>
        <time>2013-09-22T09:34:16Z</time>
      </trkpt>
      <trkpt lat="44.64923" lon="0.90977">
        <ele>226.05</ele>
        <time>2013-09-22T09:34:30Z</time>
      </trkpt>
      <trkpt lat="44.64886" lon="0.90962">
        <ele>227.49</ele>
        <time>2013-09-22T09:34:43Z</time>
      </trkpt>
      <trkpt lat="44.64837" lon="0.90922">
        <ele>230.37</ele>
        <time>2013-09-22T09:34:59Z</time>
      </trkpt>
      <trkpt lat="44.64811" lon="0.90902">
        <ele>231.81</ele>
        <time>2013-09-22T09:35:07Z</time>
      </trkpt>
      <trkpt lat="44.64765" lon="0.90883">
        <ele>230.37</ele>
        <time>2013-09-22T09:35:21Z</time>
      </trkpt>
      <trkpt lat="44.64757" lon="0.9088">
        <ele>229.89</ele>
        <time>2013-09-22T09:35:23Z</time>
      </trkpt>
      <trkpt lat="44.64748" lon="0.90878">
        <ele>229.41</ele>
        <time>2013-09-22T09:35:25Z</time>
      </trkpt>
      <trkpt lat="44.6467" lon="0.90882">
        <ele>227.49</ele>
        <time>2013-09-22T09:35:36Z</time>
      </trkpt>
      <trkpt lat="44.64601" lon="0.909">
        <ele>226.53</ele>
        <time>2013-09-22T09:35:45Z</time>
      </trkpt>
      <trkpt lat="44.64579" lon="0.90907">
        <ele>226.05</ele>
        <time>2013-09-22T09:35:49Z</time>
      </trkpt>
      <trkpt lat="44.64569" lon="0.90908">
        <ele>226.05</ele>
        <time>2013-09-22T09:35:51Z</time>
      </trkpt>
      <trkpt lat="44.6456" lon="0.90907">
        <ele>226.05</ele>
        <time>2013-09-22T09:35:53Z</time>
      </trkpt>
      <trkpt lat="44.64522" lon="0.90881">
        <ele>226.05</ele>
        <time>2013-09-22T09:36:01Z</time>
      </trkpt>
      <trkpt lat="44.64505" lon="0.90863">
        <ele>226.05</ele>
        <time>2013-09-22T09:36:05Z</time>
      </trkpt>
      <trkpt lat="44.64488" lon="0.90848">
        <ele>227.01</ele>
        <time>2013-09-22T09:36:09Z</time>
      </trkpt>
      <trkpt lat="44.64474" lon="0.90838">
        <ele>228.45</ele>
        <time>2013-09-22T09:36:12Z</time>
      </trkpt>
      <trkpt lat="44.64419" lon="0.90825">
        <ele>234.22</ele>
        <time>2013-09-22T09:36:25Z</time>
      </trkpt>
      <trkpt lat="44.6435" lon="0.90824">
        <ele>233.74</ele>
        <time>2013-09-22T09:36:41Z</time>
      </trkpt>
      <trkpt lat="44.64317" lon="0.90816">
        <ele>233.74</ele>
        <time>2013-09-22T09:36:49Z</time>
      </trkpt>
      <trkpt lat="44.64291" lon="0.90797">
        <ele>232.3</ele>
        <time>2013-09-22T09:36:55Z</time>
      </trkpt>
      <trkpt lat="44.64213" lon="0.90746">
        <ele>226.53</ele>
        <time>2013-09-22T09:37:06Z</time>
      </trkpt>
      <trkpt lat="44.64155" lon="0.90737">
        <ele>223.16</ele>
        <time>2013-09-22T09:37:12Z</time>
      </trkpt>
      <trkpt lat="44.64118" lon="0.90721">
        <ele>222.2</ele>
        <time>2013-09-22T09:37:16Z</time>
      </trkpt>
      <trkpt lat="44.64056" lon="0.90674">
        <ele>222.2</ele>
        <time>2013-09-22T09:37:25Z</time>
      </trkpt>
      <trkpt lat="44.6403" lon="0.90659">
        <ele>222.2</ele>
        <time>2013-09-22T09:37:29Z</time>
      </trkpt>
      <trkpt lat="44.63932" lon="0.90617">
        <ele>220.28</ele>
        <time>2013-09-22T09:37:42Z</time>
      </trkpt>
      <trkpt lat="44.6387" lon="0.90548">
        <ele>222.2</ele>
        <time>2013-09-22T09:37:53Z</time>
      </trkpt>
      <trkpt lat="44.63857" lon="0.90536">
        <ele>223.64</ele>
        <time>2013-09-22T09:37:56Z</time>
      </trkpt>
      <trkpt lat="44.63827" lon="0.90521">
        <ele>224.12</ele>
        <time>2013-09-22T09:38:02Z</time>
      </trkpt>
      <trkpt lat="44.63787" lon="0.905">
        <ele>221.72</ele>
        <time>2013-09-22T09:38:09Z</time>
      </trkpt>
      <trkpt lat="44.63698" lon="0.90436">
        <ele>218.84</ele>
        <time>2013-09-22T09:38:25Z</time>
      </trkpt>
      <trkpt lat="44.63602" lon="0.90374">
        <ele>214.03</ele>
        <time>2013-09-22T09:38:39Z</time>
      </trkpt>
      <trkpt lat="44.63581" lon="0.90354">
        <ele>213.07</ele>
        <time>2013-09-22T09:38:42Z</time>
      </trkpt>
      <trkpt lat="44.63541" lon="0.90272">
        <ele>207.78</ele>
        <time>2013-09-22T09:38:49Z</time>
      </trkpt>
      <trkpt lat="44.63492" lon="0.90234">
        <ele>203.94</ele>
        <time>2013-09-22T09:38:55Z</time>
      </trkpt>
      <trkpt lat="44.6346" lon="0.90247">
        <ele>202.01</ele>
        <time>2013-09-22T09:38:58Z</time>
      </trkpt>
      <trkpt lat="44.63414" lon="0.90281">
        <ele>198.17</ele>
        <time>2013-09-22T09:39:03Z</time>
      </trkpt>
      <trkpt lat="44.63387" lon="0.90292">
        <ele>192.88</ele>
        <time>2013-09-22T09:39:10Z</time>
      </trkpt>
      <trkpt lat="44.63387" lon="0.90291">
        <ele>193.36</ele>
        <time>2013-09-22T09:39:21Z</time>
      </trkpt>
      <trkpt lat="44.63388" lon="0.90291">
        <ele>196.73</ele>
        <time>2013-09-22T09:39:42Z</time>
      </trkpt>
      <trkpt lat="44.63387" lon="0.90291">
        <ele>198.65</ele>
        <time>2013-09-22T09:40:03Z</time>
      </trkpt>
      <trkpt lat="44.63389" lon="0.9029">
        <ele>200.57</ele>
        <time>2013-09-22T09:40:26Z</time>
      </trkpt>
      <trkpt lat="44.63389" lon="0.9029">
        <ele>199.13</ele>
        <time>2013-09-22T09:40:43Z</time>
      </trkpt>
      <trkpt lat="44.6339" lon="0.90289">
        <ele>198.65</ele>
        <time>2013-09-22T09:40:48Z</time>
      </trkpt>
      <trkpt lat="44.634" lon="0.90284">
        <ele>197.21</ele>
        <time>2013-09-22T09:40:53Z</time>
      </trkpt>
      <trkpt lat="44.63405" lon="0.90243">
        <ele>190.96</ele>
        <time>2013-09-22T09:41:01Z</time>
      </trkpt>
      <trkpt lat="44.63402" lon="0.90216">
        <ele>188.08</ele>
        <time>2013-09-22T09:41:04Z</time>
      </trkpt>
      <trkpt lat="44.63393" lon="0.90165">
        <ele>181.35</ele>
        <time>2013-09-22T09:41:10Z</time>
      </trkpt>
      <trkpt lat="44.63399" lon="0.90138">
        <ele>176.54</ele>
        <time>2013-09-22T09:41:14Z</time>
      </trkpt>
      <trkpt lat="44.63409" lon="0.90069">
        <ele>174.14</ele>
        <time>2013-09-22T09:41:26Z</time>
      </trkpt>
      <trkpt lat="44.6341" lon="0.90029">
        <ele>174.14</ele>
        <time>2013-09-22T09:41:36Z</time>
      </trkpt>
      <trkpt lat="44.63406" lon="0.89997">
        <ele>174.62</ele>
        <time>2013-09-22T09:41:40Z</time>
      </trkpt>
      <trkpt lat="44.63409" lon="0.89966">
        <ele>175.1</ele>
        <time>2013-09-22T09:41:44Z</time>
      </trkpt>
      <trkpt lat="44.63418" lon="0.89947">
        <ele>175.1</ele>
        <time>2013-09-22T09:41:47Z</time>
      </trkpt>
      <trkpt lat="44.63433" lon="0.89909">
        <ele>176.54</ele>
        <time>2013-09-22T09:41:55Z</time>
      </trkpt>
      <trkpt lat="44.63429" lon="0.89888">
        <ele>178.46</ele>
        <time>2013-09-22T09:42:00Z</time>
      </trkpt>
      <trkpt lat="44.6341" lon="0.89857">
        <ele>179.42</ele>
        <time>2013-09-22T09:42:07Z</time>
      </trkpt>
      <trkpt lat="44.63381" lon="0.89802">
        <ele>179.42</ele>
        <time>2013-09-22T09:42:19Z</time>
      </trkpt>
      <trkpt lat="44.63368" lon="0.8978">
        <ele>178.94</ele>
        <time>2013-09-22T09:42:24Z</time>
      </trkpt>
      <trkpt lat="44.63362" lon="0.8976">
        <ele>178.46</ele>
        <time>2013-09-22T09:42:28Z</time>
      </trkpt>
      <trkpt lat="44.63352" lon="0.89696">
        <ele>177.5</ele>
        <time>2013-09-22T09:42:41Z</time>
      </trkpt>
      <trkpt lat="44.63349" lon="0.89649">
        <ele>176.54</ele>
        <time>2013-09-22T09:42:52Z</time>
      </trkpt>
      <trkpt lat="44.63349" lon="0.89612">
        <ele>174.62</ele>
        <time>2013-09-22T09:43:02Z</time>
      </trkpt>
      <trkpt lat="44.63345" lon="0.89605">
        <ele>174.62</ele>
        <time>2013-09-22T09:43:05Z</time>
      </trkpt>
      <trkpt lat="44.6333" lon="0.89598">
        <ele>175.1</ele>
        <time>2013-09-22T09:43:14Z</time>
      </trkpt>
      <trkpt lat="44.63319" lon="0.89577">
        <ele>175.58</ele>
        <time>2013-09-22T09:43:23Z</time>
      </trkpt>
      <trkpt lat="44.63311" lon="0.89564">
        <ele>175.58</ele>
        <time>2013-09-22T09:43:26Z</time>
      </trkpt>
      <trkpt lat="44.63283" lon="0.89519">
        <ele>176.54</ele>
        <time>2013-09-22T09:43:35Z</time>
      </trkpt>
      <trkpt lat="44.63265" lon="0.89484">
        <ele>179.42</ele>
        <time>2013-09-22T09:43:41Z</time>
      </trkpt>
      <trkpt lat="44.63262" lon="0.89465">
        <ele>182.31</ele>
        <time>2013-09-22T09:43:46Z</time>
      </trkpt>
      <trkpt lat="44.63289" lon="0.89433">
        <ele>182.31</ele>
        <time>2013-09-22T09:44:02Z</time>
      </trkpt>
      <trkpt lat="44.6332" lon="0.89394">
        <ele>181.35</ele>
        <time>2013-09-22T09:44:17Z</time>
      </trkpt>
      <trkpt lat="44.63343" lon="0.89374">
        <ele>182.31</ele>
        <time>2013-09-22T09:44:29Z</time>
      </trkpt>
      <trkpt lat="44.63367" lon="0.89355">
        <ele>182.31</ele>
        <time>2013-09-22T09:44:43Z</time>
      </trkpt>
      <trkpt lat="44.63383" lon="0.89335">
        <ele>182.79</ele>
        <time>2013-09-22T09:44:53Z</time>
      </trkpt>
      <trkpt lat="44.63403" lon="0.8931">
        <ele>185.19</ele>
        <time>2013-09-22T09:45:06Z</time>
      </trkpt>
      <trkpt lat="44.63424" lon="0.89286">
        <ele>186.63</ele>
        <time>2013-09-22T09:45:16Z</time>
      </trkpt>
      <trkpt lat="44.63436" lon="0.89271">
        <ele>190</ele>
        <time>2013-09-22T09:45:29Z</time>
      </trkpt>
      <trkpt lat="44.63435" lon="0.89266">
        <ele>188.56</ele>
        <time>2013-09-22T09:45:50Z</time>
      </trkpt>
      <trkpt lat="44.63439" lon="0.89268">
        <ele>186.15</ele>
        <time>2013-09-22T09:46:15Z</time>
      </trkpt>
      <trkpt lat="44.63454" lon="0.89264">
        <ele>187.59</ele>
        <time>2013-09-22T09:46:25Z</time>
      </trkpt>
      <trkpt lat="44.63475" lon="0.89235">
        <ele>189.52</ele>
        <time>2013-09-22T09:46:38Z</time>
      </trkpt>
      <trkpt lat="44.63501" lon="0.89201">
        <ele>190.48</ele>
        <time>2013-09-22T09:46:52Z</time>
      </trkpt>
      <trkpt lat="44.63528" lon="0.89168">
        <ele>191.92</ele>
        <time>2013-09-22T09:47:06Z</time>
      </trkpt>
      <trkpt lat="44.63535" lon="0.8916">
        <ele>191.92</ele>
        <time>2013-09-22T09:47:10Z</time>
      </trkpt>
      <trkpt lat="44.63542" lon="0.89152">
        <ele>192.4</ele>
        <time>2013-09-22T09:47:15Z</time>
      </trkpt>
      <trkpt lat="44.6356" lon="0.89131">
        <ele>192.4</ele>
        <time>2013-09-22T09:47:27Z</time>
      </trkpt>
      <trkpt lat="44.63566" lon="0.89125">
        <ele>192.4</ele>
        <time>2013-09-22T09:47:43Z</time>
      </trkpt>
      <trkpt lat="44.6357" lon="0.89118">
        <ele>193.36</ele>
        <time>2013-09-22T09:47:55Z</time>
      </trkpt>
      <trkpt lat="44.63577" lon="0.89111">
        <ele>194.8</ele>
        <time>2013-09-22T09:48:06Z</time>
      </trkpt>
      <trkpt lat="44.63591" lon="0.89101">
        <ele>202.49</ele>
        <time>2013-09-22T09:48:14Z</time>
      </trkpt>
      <trkpt lat="44.63608" lon="0.89078">
        <ele>208.26</ele>
        <time>2013-09-22T09:48:26Z</time>
      </trkpt>
      <trkpt lat="44.63622" lon="0.89061">
        <ele>210.67</ele>
        <time>2013-09-22T09:48:37Z</time>
      </trkpt>
      <trkpt lat="44.63626" lon="0.89054">
        <ele>212.59</ele>
        <time>2013-09-22T09:48:48Z</time>
      </trkpt>
      <trkpt lat="44.63632" lon="0.89047">
        <ele>212.11</ele>
        <time>2013-09-22T09:49:00Z</time>
      </trkpt>
      <trkpt lat="44.63639" lon="0.89029">
        <ele>214.99</ele>
        <time>2013-09-22T09:49:12Z</time>
      </trkpt>
      <trkpt lat="44.63629" lon="0.88993">
        <ele>219.32</ele>
        <time>2013-09-22T09:49:25Z</time>
      </trkpt>
      <trkpt lat="44.63613" lon="0.88945">
        <ele>219.8</ele>
        <time>2013-09-22T09:49:43Z</time>
      </trkpt>
      <trkpt lat="44.63602" lon="0.88912">
        <ele>216.91</ele>
        <time>2013-09-22T09:49:57Z</time>
      </trkpt>
      <trkpt lat="44.6358" lon="0.88854">
        <ele>213.07</ele>
        <time>2013-09-22T09:50:13Z</time>
      </trkpt>
      <trkpt lat="44.63561" lon="0.88807">
        <ele>214.51</ele>
        <time>2013-09-22T09:50:26Z</time>
      </trkpt>
      <trkpt lat="44.6356" lon="0.88806">
        <ele>217.4</ele>
        <time>2013-09-22T09:50:39Z</time>
      </trkpt>
      <trkpt lat="44.63561" lon="0.88803">
        <ele>216.91</ele>
        <time>2013-09-22T09:51:01Z</time>
      </trkpt>
      <trkpt lat="44.6356" lon="0.88805">
        <ele>218.36</ele>
        <time>2013-09-22T09:51:18Z</time>
      </trkpt>
      <trkpt lat="44.63559" lon="0.88792">
        <ele>216.43</ele>
        <time>2013-09-22T09:51:39Z</time>
      </trkpt>
      <trkpt lat="44.63562" lon="0.88724">
        <ele>213.55</ele>
        <time>2013-09-22T09:51:51Z</time>
      </trkpt>
      <trkpt lat="44.63573" lon="0.88631">
        <ele>214.51</ele>
        <time>2013-09-22T09:52:06Z</time>
      </trkpt>
      <trkpt lat="44.63574" lon="0.88576">
        <ele>215.95</ele>
        <time>2013-09-22T09:52:15Z</time>
      </trkpt>
      <trkpt lat="44.63573" lon="0.88557">
        <ele>216.43</ele>
        <time>2013-09-22T09:52:18Z</time>
      </trkpt>
      <trkpt lat="44.63563" lon="0.88478">
        <ele>218.36</ele>
        <time>2013-09-22T09:52:31Z</time>
      </trkpt>
      <trkpt lat="44.63554" lon="0.88429">
        <ele>216.91</ele>
        <time>2013-09-22T09:52:40Z</time>
      </trkpt>
      <trkpt lat="44.63512" lon="0.88319">
        <ele>213.07</ele>
        <time>2013-09-22T09:52:54Z</time>
      </trkpt>
      <trkpt lat="44.63448" lon="0.88179">
        <ele>208.74</ele>
        <time>2013-09-22T09:53:08Z</time>
      </trkpt>
      <trkpt lat="44.63431" lon="0.88156">
        <ele>207.78</ele>
        <time>2013-09-22T09:53:11Z</time>
      </trkpt>
      <trkpt lat="44.63422" lon="0.88139">
        <ele>207.3</ele>
        <time>2013-09-22T09:53:13Z</time>
      </trkpt>
      <trkpt lat="44.63409" lon="0.88093">
        <ele>206.34</ele>
        <time>2013-09-22T09:53:18Z</time>
      </trkpt>
      <trkpt lat="44.63406" lon="0.88064">
        <ele>205.86</ele>
        <time>2013-09-22T09:53:21Z</time>
      </trkpt>
      <trkpt lat="44.63408" lon="0.88036">
        <ele>205.38</ele>
        <time>2013-09-22T09:53:24Z</time>
      </trkpt>
      <trkpt lat="44.63439" lon="0.87948">
        <ele>203.46</ele>
        <time>2013-09-22T09:53:36Z</time>
      </trkpt>
      <trkpt lat="44.63442" lon="0.87942">
        <ele>203.46</ele>
        <time>2013-09-22T09:53:37Z</time>
      </trkpt>
      <trkpt lat="44.6345" lon="0.87925">
        <ele>202.98</ele>
        <time>2013-09-22T09:53:40Z</time>
      </trkpt>
      <trkpt lat="44.63488" lon="0.87852">
        <ele>200.09</ele>
        <time>2013-09-22T09:53:53Z</time>
      </trkpt>
      <trkpt lat="44.63489" lon="0.87846">
        <ele>200.57</ele>
        <time>2013-09-22T09:54:03Z</time>
      </trkpt>
      <trkpt lat="44.63488" lon="0.87844">
        <ele>200.57</ele>
        <time>2013-09-22T09:54:23Z</time>
      </trkpt>
      <trkpt lat="44.63478" lon="0.87838">
        <ele>201.53</ele>
        <time>2013-09-22T09:54:33Z</time>
      </trkpt>
      <trkpt lat="44.63478" lon="0.8784">
        <ele>207.3</ele>
        <time>2013-09-22T09:55:04Z</time>
      </trkpt>
      <trkpt lat="44.63466" lon="0.87838">
        <ele>207.78</ele>
        <time>2013-09-22T09:55:23Z</time>
      </trkpt>
      <trkpt lat="44.63435" lon="0.87836">
        <ele>206.82</ele>
        <time>2013-09-22T09:55:34Z</time>
      </trkpt>
      <trkpt lat="44.63389" lon="0.87833">
        <ele>206.82</ele>
        <time>2013-09-22T09:55:46Z</time>
      </trkpt>
      <trkpt lat="44.63356" lon="0.8783">
        <ele>211.63</ele>
        <time>2013-09-22T09:55:57Z</time>
      </trkpt>
      <trkpt lat="44.6335" lon="0.87829">
        <ele>212.59</ele>
        <time>2013-09-22T09:56:00Z</time>
      </trkpt>
      <trkpt lat="44.63341" lon="0.8783">
        <ele>213.07</ele>
        <time>2013-09-22T09:56:05Z</time>
      </trkpt>
      <trkpt lat="44.63286" lon="0.87826">
        <ele>212.11</ele>
        <time>2013-09-22T09:56:17Z</time>
      </trkpt>
      <trkpt lat="44.63272" lon="0.87826">
        <ele>211.63</ele>
        <time>2013-09-22T09:56:20Z</time>
      </trkpt>
      <trkpt lat="44.63254" lon="0.87824">
        <ele>211.63</ele>
        <time>2013-09-22T09:56:24Z</time>
      </trkpt>
      <trkpt lat="44.63234" lon="0.87815">
        <ele>210.67</ele>
        <time>2013-09-22T09:56:29Z</time>
      </trkpt>
      <trkpt lat="44.63216" lon="0.87805">
        <ele>210.67</ele>
        <time>2013-09-22T09:56:33Z</time>
      </trkpt>
      <trkpt lat="44.63168" lon="0.87779">
        <ele>211.15</ele>
        <time>2013-09-22T09:56:43Z</time>
      </trkpt>
      <trkpt lat="44.6314" lon="0.87765">
        <ele>212.11</ele>
        <time>2013-09-22T09:56:50Z</time>
      </trkpt>
      <trkpt lat="44.6311" lon="0.87749">
        <ele>210.67</ele>
        <time>2013-09-22T09:57:03Z</time>
      </trkpt>
      <trkpt lat="44.63102" lon="0.87744">
        <ele>211.63</ele>
        <time>2013-09-22T09:57:07Z</time>
      </trkpt>
      <trkpt lat="44.63083" lon="0.87734">
        <ele>212.11</ele>
        <time>2013-09-22T09:57:16Z</time>
      </trkpt>
      <trkpt lat="44.63078" lon="0.87733">
        <ele>211.63</ele>
        <time>2013-09-22T09:57:18Z</time>
      </trkpt>
      <trkpt lat="44.63062" lon="0.87724">
        <ele>211.15</ele>
        <time>2013-09-22T09:57:22Z</time>
      </trkpt>
      <trkpt lat="44.63053" lon="0.87719">
        <ele>210.67</ele>
        <time>2013-09-22T09:57:24Z</time>
      </trkpt>
      <trkpt lat="44.63039" lon="0.87712">
        <ele>209.7</ele>
        <time>2013-09-22T09:57:27Z</time>
      </trkpt>
      <trkpt lat="44.63018" lon="0.87698">
        <ele>208.26</ele>
        <time>2013-09-22T09:57:32Z</time>
      </trkpt>
      <trkpt lat="44.62988" lon="0.87679">
        <ele>206.82</ele>
        <time>2013-09-22T09:57:40Z</time>
      </trkpt>
      <trkpt lat="44.62983" lon="0.87679">
        <ele>205.38</ele>
        <time>2013-09-22T09:57:52Z</time>
      </trkpt>
      <trkpt lat="44.62983" lon="0.87679">
        <ele>204.42</ele>
        <time>2013-09-22T09:58:15Z</time>
      </trkpt>
      <trkpt lat="44.62982" lon="0.87677">
        <ele>203.46</ele>
        <time>2013-09-22T09:58:36Z</time>
      </trkpt>
      <trkpt lat="44.62981" lon="0.87677">
        <ele>202.49</ele>
        <time>2013-09-22T09:58:56Z</time>
      </trkpt>
      <trkpt lat="44.62981" lon="0.87678">
        <ele>203.94</ele>
        <time>2013-09-22T09:59:24Z</time>
      </trkpt>
      <trkpt lat="44.62979" lon="0.87677">
        <ele>205.86</ele>
        <time>2013-09-22T09:59:45Z</time>
      </trkpt>
      <trkpt lat="44.6298" lon="0.87679">
        <ele>205.86</ele>
        <time>2013-09-22T10:00:09Z</time>
      </trkpt>
      <trkpt lat="44.62982" lon="0.8768">
        <ele>206.82</ele>
        <time>2013-09-22T10:00:30Z</time>
      </trkpt>
      <trkpt lat="44.62984" lon="0.8768">
        <ele>210.19</ele>
        <time>2013-09-22T10:01:00Z</time>
      </trkpt>
      <trkpt lat="44.62984" lon="0.87679">
        <ele>210.19</ele>
        <time>2013-09-22T10:01:18Z</time>
      </trkpt>
      <trkpt lat="44.62984" lon="0.87679">
        <ele>211.15</ele>
        <time>2013-09-22T10:01:41Z</time>
      </trkpt>
      <trkpt lat="44.62983" lon="0.8768">
        <ele>210.19</ele>
        <time>2013-09-22T10:02:01Z</time>
      </trkpt>
      <trkpt lat="44.62981" lon="0.8768">
        <ele>209.7</ele>
        <time>2013-09-22T10:02:21Z</time>
      </trkpt>
      <trkpt lat="44.6298" lon="0.87679">
        <ele>209.7</ele>
        <time>2013-09-22T10:02:38Z</time>
      </trkpt>
      <trkpt lat="44.62977" lon="0.87677">
        <ele>209.22</ele>
        <time>2013-09-22T10:02:40Z</time>
      </trkpt>
      <trkpt lat="44.62974" lon="0.8767">
        <ele>208.26</ele>
        <time>2013-09-22T10:02:44Z</time>
      </trkpt>
      <trkpt lat="44.62965" lon="0.87657">
        <ele>207.3</ele>
        <time>2013-09-22T10:02:48Z</time>
      </trkpt>
      <trkpt lat="44.6295" lon="0.87642">
        <ele>206.34</ele>
        <time>2013-09-22T10:02:52Z</time>
      </trkpt>
      <trkpt lat="44.62863" lon="0.87561">
        <ele>200.09</ele>
        <time>2013-09-22T10:03:12Z</time>
      </trkpt>
      <trkpt lat="44.62861" lon="0.87558">
        <ele>200.09</ele>
        <time>2013-09-22T10:03:13Z</time>
      </trkpt>
      <trkpt lat="44.62873" lon="0.87549">
        <ele>198.65</ele>
        <time>2013-09-22T10:03:19Z</time>
      </trkpt>
      <trkpt lat="44.62882" lon="0.87549">
        <ele>198.17</ele>
        <time>2013-09-22T10:03:21Z</time>
      </trkpt>
      <trkpt lat="44.62983" lon="0.87521">
        <ele>194.8</ele>
        <time>2013-09-22T10:03:40Z</time>
      </trkpt>
      <trkpt lat="44.63026" lon="0.8751">
        <ele>194.32</ele>
        <time>2013-09-22T10:03:49Z</time>
      </trkpt>
      <trkpt lat="44.63046" lon="0.87494">
        <ele>194.32</ele>
        <time>2013-09-22T10:03:55Z</time>
      </trkpt>
      <trkpt lat="44.63055" lon="0.87421">
        <ele>193.36</ele>
        <time>2013-09-22T10:04:05Z</time>
      </trkpt>
      <trkpt lat="44.63057" lon="0.87369">
        <ele>193.36</ele>
        <time>2013-09-22T10:04:13Z</time>
      </trkpt>
      <trkpt lat="44.63063" lon="0.87328">
        <ele>194.8</ele>
        <time>2013-09-22T10:04:20Z</time>
      </trkpt>
      <trkpt lat="44.63075" lon="0.87282">
        <ele>197.69</ele>
        <time>2013-09-22T10:04:31Z</time>
      </trkpt>
      <trkpt lat="44.63081" lon="0.87221">
        <ele>198.17</ele>
        <time>2013-09-22T10:04:44Z</time>
      </trkpt>
      <trkpt lat="44.63089" lon="0.87167">
        <ele>200.57</ele>
        <time>2013-09-22T10:04:57Z</time>
      </trkpt>
      <trkpt lat="44.63086" lon="0.87152">
        <ele>206.82</ele>
        <time>2013-09-22T10:05:09Z</time>
      </trkpt>
      <trkpt lat="44.63086" lon="0.8715">
        <ele>209.22</ele>
        <time>2013-09-22T10:05:30Z</time>
      </trkpt>
    </trkseg>
  </trk>
</gpx>